Observation data for Sierra Blanca on 06/14/2019      Previous  Date  Next       Current Mesonet Observations  Soil Data  Daily Summary Page  Observations in Plain Language
KSB1 140500Z 07011KT 19/16 A3019 RMK A01 T01940155  RH  078%=      5-min Rain = 0
KSB1 140501Z 08011KT 19/16 A3019 RMK A01 T01940157  RH  079%=      5-min Rain = 0
KSB1 140502Z 08011KT 19/16 A3019 RMK A01 T01940162  RH  082%=      5-min Rain = 0
KSB1 140503Z 08011KT 19/16 A3019 RMK A01 T01930163  RH  083%=      5-min Rain = 0
KSB1 140504Z 08010KT 19/16 A3019 RMK A01 T01930163  RH  083%=      5-min Rain = 0
KSB1 140505Z 08010KT 19/16 A3019 RMK A01 T01930164  RH  084%=      5-min Rain = 0
KSB1 140506Z 09012KT 19/16 A3019 RMK A01 T01920162  RH  083%=      5-min Rain = 0
KSB1 140507Z 09010KT 19/16 A3019 RMK A01 T01920163  RH  083%=      5-min Rain = 0
KSB1 140508Z 09011KT 19/16 A3019 RMK A01 T01920160  RH  082%=      5-min Rain = 0
KSB1 140509Z 09010KT 19/16 A3019 RMK A01 T01930157  RH  080%=      5-min Rain = 0
KSB1 140510Z 09009KT 19/15 A3019 RMK A01 T01930154  RH  078%=      5-min Rain = 0
KSB1 140511Z 09009KT 19/16 A3019 RMK A01 T01930155  RH  078%=      5-min Rain = 0
KSB1 140512Z 09008KT 19/16 A3019 RMK A01 T01930156  RH  079%=      5-min Rain = 0
KSB1 140513Z 10007KT 19/15 A3019 RMK A01 T01930154  RH  078%=      5-min Rain = 0
KSB1 140514Z 10009KT 19/15 A3019 RMK A01 T01930151  RH  077%=      5-min Rain = 0
KSB1 140515Z 11009KT 19/15 A3019 RMK A01 T01930150  RH  076%=      5-min Rain = 0
KSB1 140516Z 11009KT 19/15 A3019 RMK A01 T01940152  RH  077%=      5-min Rain = 0
KSB1 140517Z 12010KT 19/15 A3018 RMK A01 T01940152  RH  077%=      5-min Rain = 0
KSB1 140518Z 12010KT 19/15 A3018 RMK A01 T01940154  RH  077%=      5-min Rain = 0
KSB1 140519Z 12010KT 19/15 A3018 RMK A01 T01940153  RH  077%=      5-min Rain = 0
KSB1 140520Z 12009KT 19/15 A3018 RMK A01 T01940152  RH  077%=      5-min Rain = 0
KSB1 140521Z 12009KT 19/15 A3018 RMK A01 T01940152  RH  077%=      5-min Rain = 0
KSB1 140522Z 13009KT 19/15 A3018 RMK A01 T01940152  RH  077%=      5-min Rain = 0
KSB1 140523Z 13008KT 19/15 A3018 RMK A01 T01930154  RH  078%=      5-min Rain = 0
KSB1 140524Z 14008KT 19/16 A3018 RMK A01 T01930155  RH  079%=      5-min Rain = 0
KSB1 140525Z 15008KT 19/16 A3018 RMK A01 T01920155  RH  079%=      5-min Rain = 0
KSB1 140526Z 15008KT 19/16 A3018 RMK A01 T01910155  RH  080%=      5-min Rain = 0
KSB1 140527Z 14010KT 19/16 A3018 RMK A01 T01900155  RH  080%=      5-min Rain = 0
KSB1 140528Z 15009KT 19/15 A3018 RMK A01 T01900152  RH  078%=      5-min Rain = 0
KSB1 140529Z 14008KT 19/15 A3018 RMK A01 T01900151  RH  078%=      5-min Rain = 0
KSB1 140530Z 14007KT 19/15 A3018 RMK A01 T01900150  RH  078%=      5-min Rain = 0
KSB1 140531Z 14008KT 19/15 A3018 RMK A01 T01900150  RH  078%=      5-min Rain = 0
KSB1 140532Z 14008KT 19/15 A3018 RMK A01 T01890148  RH  077%=      5-min Rain = 0
KSB1 140533Z 13008KT 19/15 A3018 RMK A01 T01890145  RH  076%=      5-min Rain = 0
KSB1 140534Z 13009KT 19/14 A3018 RMK A01 T01900141  RH  073%=      5-min Rain = 0
KSB1 140535Z 13008KT 19/14 A3018 RMK A01 T01920141  RH  072%=      5-min Rain = 0
KSB1 140536Z 14009KT 19/14 A3018 RMK A01 T01930144  RH  073%=      5-min Rain = 0
KSB1 140537Z 14009KT 19/14 A3018 RMK A01 T01930142  RH  072%=      5-min Rain = 0
KSB1 140538Z 14009KT 19/14 A3018 RMK A01 T01930141  RH  072%=      5-min Rain = 0
KSB1 140539Z 14009KT 19/14 A3017 RMK A01 T01930141  RH  072%=      5-min Rain = 0
KSB1 140540Z 15011KT 19/14 A3017 RMK A01 T01930141  RH  072%=      5-min Rain = 0
KSB1 140541Z 15010KT 19/14 A3017 RMK A01 T01930139  RH  071%=      5-min Rain = 0
KSB1 140542Z 14011KT 19/14 A3017 RMK A01 T01930139  RH  071%=      5-min Rain = 0
KSB1 140543Z 14009KT 19/14 A3017 RMK A01 T01930139  RH  071%=      5-min Rain = 0
KSB1 140544Z 14010KT 19/14 A3017 RMK A01 T01930138  RH  071%=      5-min Rain = 0
KSB1 140545Z 14009KT 19/14 A3017 RMK A01 T01930139  RH  071%=      5-min Rain = 0
KSB1 140546Z 15009KT 19/14 A3017 RMK A01 T01930140  RH  071%=      5-min Rain = 0
KSB1 140547Z 14010KT 19/14 A3017 RMK A01 T01930138  RH  070%=      5-min Rain = 0
KSB1 140548Z 15008KT 19/14 A3018 RMK A01 T01930138  RH  070%=      5-min Rain = 0
KSB1 140549Z 14010KT 19/14 A3018 RMK A01 T01940138  RH  070%=      5-min Rain = 0
KSB1 140550Z 14009KT 19/14 A3018 RMK A01 T01940137  RH  069%=      5-min Rain = 0
KSB1 140551Z 14010KT 19/14 A3018 RMK A01 T01940136  RH  069%=      5-min Rain = 0
KSB1 140552Z 14009KT 20/14 A3018 RMK A01 T01950136  RH  069%=      5-min Rain = 0
KSB1 140553Z 15008KT 19/14 A3018 RMK A01 T01940136  RH  069%=      5-min Rain = 0
KSB1 140554Z 15007KT 19/14 A3018 RMK A01 T01940138  RH  070%=      5-min Rain = 0
KSB1 140555Z 15007KT 19/14 A3019 RMK A01 T01940138  RH  070%=      5-min Rain = 0
KSB1 140556Z 15009KT 19/14 A3019 RMK A01 T01930135  RH  069%=      5-min Rain = 0
KSB1 140557Z 15008KT 19/14 A3019 RMK A01 T01930135  RH  069%=      5-min Rain = 0
KSB1 140558Z 14008KT 19/14 A3019 RMK A01 T01940136  RH  069%=      5-min Rain = 0
KSB1 140559Z 14006KT 19/14 A3019 RMK A01 T01940136  RH  069%=      5-min Rain = 0
KSB1 140600Z 14008KT 19/14 A3019 RMK A01 T01940136  RH  069%=      5-min Rain = 0
KSB1 140601Z 14008KT 19/14 A3019 RMK A01 T01940135  RH  069%=      5-min Rain = 0
KSB1 140602Z 14008KT 19/13 A3019 RMK A01 T01940134  RH  068%=      5-min Rain = 0
KSB1 140603Z 13007KT 19/13 A3019 RMK A01 T01940134  RH  068%=      5-min Rain = 0
KSB1 140604Z 13007KT 20/13 A3019 RMK A01 T01950134  RH  068%=      5-min Rain = 0
KSB1 140605Z 13007KT 20/13 A3019 RMK A01 T01950133  RH  067%=      5-min Rain = 0
KSB1 140606Z 13007KT 20/13 A3019 RMK A01 T01950133  RH  067%=      5-min Rain = 0
KSB1 140607Z 13008KT 20/13 A3019 RMK A01 T01960133  RH  067%=      5-min Rain = 0
KSB1 140608Z 13007KT 20/13 A3019 RMK A01 T01950133  RH  067%=      5-min Rain = 0
KSB1 140609Z 13006KT 20/13 A3019 RMK A01 T01960134  RH  067%=      5-min Rain = 0
KSB1 140610Z 12007KT 20/13 A3019 RMK A01 T01950134  RH  068%=      5-min Rain = 0
KSB1 140611Z 12006KT 20/13 A3019 RMK A01 T01950134  RH  068%=      5-min Rain = 0
KSB1 140612Z 12006KT 20/13 A3019 RMK A01 T01950133  RH  067%=      5-min Rain = 0
KSB1 140613Z 12006KT 20/13 A3019 RMK A01 T01950134  RH  068%=      5-min Rain = 0
KSB1 140614Z 12005KT 20/13 A3019 RMK A01 T01950134  RH  068%=      5-min Rain = 0
KSB1 140615Z 12004KT 20/13 A3019 RMK A01 T01950134  RH  068%=      5-min Rain = 0
KSB1 140616Z 12003KT 20/13 A3019 RMK A01 T01950134  RH  068%=      5-min Rain = 0
KSB1 140617Z 11002KT 20/13 A3019 RMK A01 T01950134  RH  068%=      5-min Rain = 0
KSB1 140618Z 13002KT 20/14 A3019 RMK A01 T01950136  RH  069%=      5-min Rain = 0
KSB1 140619Z 09001KT 19/14 A3019 RMK A01 T01940136  RH  069%=      5-min Rain = 0
KSB1 140620Z 08001KT 19/14 A3019 RMK A01 T01940136  RH  069%=      5-min Rain = 0
KSB1 140621Z 11001KT 19/13 A3019 RMK A01 T01940134  RH  068%=      5-min Rain = 0
KSB1 140622Z 33000KT 19/13 A3019 RMK A01 T01940134  RH  068%=      5-min Rain = 0
KSB1 140623Z 04001KT 19/13 A3019 RMK A01 T01940134  RH  068%=      5-min Rain = 0
KSB1 140624Z 32001KT 19/13 A3019 RMK A01 T01940133  RH  068%=      5-min Rain = 0
KSB1 140625Z 36001KT 19/13 A3019 RMK A01 T01940133  RH  068%=      5-min Rain = 0
KSB1 140626Z 00002KT 20/13 A3019 RMK A01 T01950133  RH  067%=      5-min Rain = 0
KSB1 140627Z 04002KT 20/13 A3019 RMK A01 T01950133  RH  067%=      5-min Rain = 0
KSB1 140628Z 34002KT 20/13 A3019 RMK A01 T01950132  RH  067%=      5-min Rain = 0
KSB1 140629Z 32002KT 20/13 A3019 RMK A01 T01960132  RH  066%=      5-min Rain = 0
KSB1 140630Z 01003KT 20/13 A3019 RMK A01 T01960133  RH  067%=      5-min Rain = 0
KSB1 140631Z 01003KT 20/13 A3019 RMK A01 T01970131  RH  066%=      5-min Rain = 0
KSB1 140632Z 00002KT 20/13 A3019 RMK A01 T01970130  RH  065%=      5-min Rain = 0
KSB1 140633Z 35002KT 20/13 A3019 RMK A01 T01970132  RH  066%=      5-min Rain = 0
KSB1 140634Z 01003KT 20/13 A3019 RMK A01 T01980134  RH  066%=      5-min Rain = 0
KSB1 140635Z 04002KT 20/13 A3019 RMK A01 T01980134  RH  067%=      5-min Rain = 0
KSB1 140636Z 08002KT 20/13 A3019 RMK A01 T01980131  RH  065%=      5-min Rain = 0
KSB1 140637Z 08002KT 20/13 A3019 RMK A01 T01980133  RH  066%=      5-min Rain = 0
KSB1 140638Z 10003KT 20/13 A3019 RMK A01 T01980133  RH  066%=      5-min Rain = 0
KSB1 140639Z 09002KT 20/13 A3019 RMK A01 T01980131  RH  065%=      5-min Rain = 0
KSB1 140640Z 07002KT 20/13 A3019 RMK A01 T01980129  RH  064%=      5-min Rain = 0
KSB1 140641Z 13002KT 20/13 A3019 RMK A01 T01990131  RH  065%=      5-min Rain = 0
KSB1 140642Z 09003KT 20/13 A3019 RMK A01 T01990132  RH  065%=      5-min Rain = 0
KSB1 140643Z 11002KT 20/13 A3019 RMK A01 T01990130  RH  064%=      5-min Rain = 0
KSB1 140644Z 13004KT 20/13 A3019 RMK A01 T01990130  RH  064%=      5-min Rain = 0
KSB1 140645Z 09003KT 20/13 A3019 RMK A01 T02000130  RH  064%=      5-min Rain = 0
KSB1 140646Z 09002KT 20/13 A3019 RMK A01 T02000133  RH  066%=      5-min Rain = 0
KSB1 140647Z 03002KT 20/13 A302 RMK A01 T02000134  RH  066%=      5-min Rain = 0
KSB1 140648Z 05003KT 20/13 A3019 RMK A01 T02000132  RH  065%=      5-min Rain = 0
KSB1 140649Z 03003KT 20/13 A302 RMK A01 T02000129  RH  064%=      5-min Rain = 0
KSB1 140650Z 03003KT 20/13 A302 RMK A01 T02000133  RH  065%=      5-min Rain = 0
KSB1 140651Z 04002KT 20/13 A302 RMK A01 T02000132  RH  065%=      5-min Rain = 0
KSB1 140652Z 35001KT 20/13 A302 RMK A01 T02000129  RH  063%=      5-min Rain = 0
KSB1 140653Z 04001KT 20/13 A302 RMK A01 T02000128  RH  063%=      5-min Rain = 0
KSB1 140654Z 03003KT 20/13 A302 RMK A01 T02010130  RH  064%=      5-min Rain = 0
KSB1 140655Z 02002KT 20/13 A302 RMK A01 T02010132  RH  064%=      5-min Rain = 0
KSB1 140656Z 06001KT 20/13 A302 RMK A01 T02010129  RH  063%=      5-min Rain = 0
KSB1 140657Z 04000KT 20/13 A302 RMK A01 T02010129  RH  063%=      5-min Rain = 0
KSB1 140658Z 03000KT 20/13 A3021 RMK A01 T02000129  RH  063%=      5-min Rain = 0
KSB1 140659Z 04002KT 20/13 A302 RMK A01 T02000133  RH  065%=      5-min Rain = 0
KSB1 140700Z 02003KT 20/13 A302 RMK A01 T02010134  RH  065%=      5-min Rain = 0
KSB1 140701Z 02003KT 20/14 A302 RMK A01 T02000135  RH  066%=      5-min Rain = 0
KSB1 140702Z 04003KT 20/14 A302 RMK A01 T02000136  RH  067%=      5-min Rain = 0
KSB1 140703Z 02004KT 20/13 A302 RMK A01 T02000134  RH  066%=      5-min Rain = 0
KSB1 140704Z 03005KT 20/13 A302 RMK A01 T02000134  RH  066%=      5-min Rain = 0
KSB1 140705Z 05005KT 20/14 A302 RMK A01 T02000136  RH  067%=      5-min Rain = 0
KSB1 140706Z 05004KT 20/14 A302 RMK A01 T02000136  RH  067%=      5-min Rain = 0
KSB1 140707Z 07005KT 20/14 A3021 RMK A01 T01990135  RH  067%=      5-min Rain = 0
KSB1 140708Z 06004KT 20/13 A3021 RMK A01 T01990132  RH  065%=      5-min Rain = 0
KSB1 140709Z 07004KT 20/13 A3021 RMK A01 T02000134  RH  066%=      5-min Rain = 0
KSB1 140710Z 06005KT 20/13 A3021 RMK A01 T02000134  RH  066%=      5-min Rain = 0
KSB1 140711Z 07005KT 20/13 A3021 RMK A01 T02000134  RH  066%=      5-min Rain = 0
KSB1 140712Z 07005KT 20/13 A3021 RMK A01 T01990132  RH  065%=      5-min Rain = 0
KSB1 140713Z 06006KT 20/13 A3021 RMK A01 T02000133  RH  065%=      5-min Rain = 0
KSB1 140714Z 07007KT 20/14 A3021 RMK A01 T02010135  RH  066%=      5-min Rain = 0
KSB1 140715Z 08006KT 20/14 A3021 RMK A01 T02010136  RH  066%=      5-min Rain = 0
KSB1 140716Z 08006KT 20/14 A3021 RMK A01 T02000136  RH  066%=      5-min Rain = 0
KSB1 140717Z 08006KT 20/14 A3021 RMK A01 T02000136  RH  067%=      5-min Rain = 0
KSB1 140718Z 08007KT 20/14 A3021 RMK A01 T02000136  RH  067%=      5-min Rain = 0
KSB1 140719Z 07005KT 20/14 A3021 RMK A01 T01990137  RH  067%=      5-min Rain = 0
KSB1 140720Z 08005KT 20/14 A3021 RMK A01 T01990141  RH  069%=      5-min Rain = 0
KSB1 140721Z 08006KT 20/14 A3021 RMK A01 T01980139  RH  069%=      5-min Rain = 0
KSB1 140722Z 09007KT 20/14 A3021 RMK A01 T01970140  RH  070%=      5-min Rain = 0
KSB1 140723Z 08006KT 20/14 A3021 RMK A01 T01970141  RH  070%=      5-min Rain = 0
KSB1 140724Z 08006KT 20/14 A3021 RMK A01 T01970141  RH  070%=      5-min Rain = 0
KSB1 140725Z 08006KT 20/14 A3021 RMK A01 T01960142  RH  071%=      5-min Rain = 0
KSB1 140726Z 08007KT 20/14 A3021 RMK A01 T01960142  RH  071%=      5-min Rain = 0
KSB1 140727Z 08007KT 20/14 A3021 RMK A01 T01950142  RH  071%=      5-min Rain = 0
KSB1 140728Z 09007KT 20/14 A3021 RMK A01 T01950143  RH  072%=      5-min Rain = 0
KSB1 140729Z 09007KT 20/14 A3021 RMK A01 T01950142  RH  071%=      5-min Rain = 0
KSB1 140730Z 09007KT 20/14 A3021 RMK A01 T01950142  RH  071%=      5-min Rain = 0
KSB1 140731Z 10007KT 20/14 A3021 RMK A01 T01950142  RH  071%=      5-min Rain = 0
KSB1 140732Z 10007KT 20/14 A3021 RMK A01 T01950142  RH  072%=      5-min Rain = 0
KSB1 140733Z 10008KT 20/14 A302 RMK A01 T01950141  RH  071%=      5-min Rain = 0
KSB1 140734Z 11007KT 20/14 A302 RMK A01 T01950141  RH  071%=      5-min Rain = 0
KSB1 140735Z 11007KT 20/14 A302 RMK A01 T01960140  RH  070%=      5-min Rain = 0
KSB1 140736Z 11007KT 20/14 A302 RMK A01 T01960140  RH  070%=      5-min Rain = 0
KSB1 140737Z 11007KT 20/14 A302 RMK A01 T01960142  RH  071%=      5-min Rain = 0
KSB1 140738Z 11008KT 20/14 A302 RMK A01 T01960142  RH  071%=      5-min Rain = 0
KSB1 140739Z 12007KT 20/14 A302 RMK A01 T01960142  RH  071%=      5-min Rain = 0
KSB1 140740Z 12007KT 20/14 A302 RMK A01 T01960143  RH  071%=      5-min Rain = 0
KSB1 140741Z 12008KT 20/14 A302 RMK A01 T01960142  RH  071%=      5-min Rain = 0
KSB1 140742Z 12009KT 20/14 A302 RMK A01 T01960142  RH  071%=      5-min Rain = 0
KSB1 140743Z 12008KT 20/14 A302 RMK A01 T01950142  RH  071%=      5-min Rain = 0
KSB1 140744Z 13008KT 20/14 A302 RMK A01 T01950142  RH  071%=      5-min Rain = 0
KSB1 140745Z 13008KT 19/14 A302 RMK A01 T01940141  RH  071%=      5-min Rain = 0
KSB1 140746Z 13007KT 20/14 A302 RMK A01 T01950143  RH  072%=      5-min Rain = 0
KSB1 140747Z 12006KT 19/14 A302 RMK A01 T01940143  RH  072%=      5-min Rain = 0
KSB1 140748Z 12006KT 19/14 A302 RMK A01 T01940144  RH  073%=      5-min Rain = 0
KSB1 140749Z 11006KT 19/14 A302 RMK A01 T01940144  RH  073%=      5-min Rain = 0
KSB1 140750Z 11005KT 19/15 A302 RMK A01 T01940146  RH  074%=      5-min Rain = 0
KSB1 140751Z 10005KT 19/15 A302 RMK A01 T01930147  RH  074%=      5-min Rain = 0
KSB1 140752Z 10006KT 19/15 A302 RMK A01 T01920146  RH  074%=      5-min Rain = 0
KSB1 140753Z 10007KT 19/15 A302 RMK A01 T01920146  RH  075%=      5-min Rain = 0
KSB1 140754Z 11008KT 19/15 A302 RMK A01 T01910145  RH  074%=      5-min Rain = 0
KSB1 140755Z 11009KT 19/15 A3019 RMK A01 T01910145  RH  074%=      5-min Rain = 0
KSB1 140756Z 12010KT 19/14 A3019 RMK A01 T01910142  RH  073%=      5-min Rain = 0
KSB1 140757Z 12009KT 19/14 A3019 RMK A01 T01920141  RH  072%=      5-min Rain = 0
KSB1 140758Z 12008KT 19/14 A3018 RMK A01 T01930142  RH  072%=      5-min Rain = 0
KSB1 140759Z 12009KT 19/14 A3018 RMK A01 T01930144  RH  073%=      5-min Rain = 0
KSB1 140800Z 13009KT 19/15 A3018 RMK A01 T01920145  RH  074%=      5-min Rain = 0
KSB1 140801Z 13010KT 19/14 A3017 RMK A01 T01920144  RH  074%=      5-min Rain = 0
KSB1 140802Z 14011KT 19/14 A3017 RMK A01 T01910143  RH  074%=      5-min Rain = 0
KSB1 140803Z 13012KT 19/14 A3017 RMK A01 T01910140  RH  072%=      5-min Rain = 0
KSB1 140804Z 13012KT 19/14 A3017 RMK A01 T01920140  RH  072%=      5-min Rain = 0
KSB1 140805Z 13013KT 19/14 A3016 RMK A01 T01930138  RH  071%=      5-min Rain = 0
KSB1 140806Z 13012KT 19/14 A3016 RMK A01 T01940138  RH  070%=      5-min Rain = 0
KSB1 140807Z 13011KT 19/14 A3016 RMK A01 T01940138  RH  070%=      5-min Rain = 0
KSB1 140808Z 13011KT 19/14 A3016 RMK A01 T01940137  RH  070%=      5-min Rain = 0
KSB1 140809Z 13011KT 19/14 A3016 RMK A01 T01930137  RH  070%=      5-min Rain = 0
KSB1 140810Z 12013KT 19/14 A3015 RMK A01 T01940136  RH  069%=      5-min Rain = 0
KSB1 140811Z 13013KT 19/14 A3015 RMK A01 T01940137  RH  069%=      5-min Rain = 0
KSB1 140812Z 13011KT 19/14 A3016 RMK A01 T01940137  RH  070%=      5-min Rain = 0
KSB1 140813Z 13012KT 19/14 A3016 RMK A01 T01940137  RH  070%=      5-min Rain = 0
KSB1 140814Z 13011KT 19/14 A3016 RMK A01 T01940138  RH  070%=      5-min Rain = 0
KSB1 140815Z 13012KT 19/14 A3016 RMK A01 T01940138  RH  070%=      5-min Rain = 0
KSB1 140816Z 13011KT 19/14 A3016 RMK A01 T01930137  RH  070%=      5-min Rain = 0
KSB1 140817Z 13011KT 19/14 A3016 RMK A01 T01930137  RH  070%=      5-min Rain = 0
KSB1 140818Z 14012KT 19/14 A3016 RMK A01 T01930136  RH  069%=      5-min Rain = 0
KSB1 140819Z 14011KT 19/14 A3016 RMK A01 T01930135  RH  069%=      5-min Rain = 0
KSB1 140820Z 14012KT 19/14 A3016 RMK A01 T01930135  RH  069%=      5-min Rain = 0
KSB1 140821Z 15011KT 19/14 A3016 RMK A01 T01930136  RH  070%=      5-min Rain = 0
KSB1 140822Z 15012KT 19/14 A3016 RMK A01 T01930135  RH  069%=      5-min Rain = 0
KSB1 140823Z 15012KT 19/14 A3016 RMK A01 T01930135  RH  069%=      5-min Rain = 0
KSB1 140824Z 15014KT 19/13 A3016 RMK A01 T01930134  RH  069%=      5-min Rain = 0
KSB1 140825Z 15011KT 19/13 A3016 RMK A01 T01930132  RH  068%=      5-min Rain = 0
KSB1 140826Z 16011KT 19/13 A3016 RMK A01 T01930134  RH  068%=      5-min Rain = 0
KSB1 140827Z 16011KT 19/13 A3016 RMK A01 T01930134  RH  069%=      5-min Rain = 0
KSB1 140828Z 17009KT 19/14 A3016 RMK A01 T01930135  RH  069%=      5-min Rain = 0
KSB1 140829Z 18009KT 19/14 A3016 RMK A01 T01910136  RH  070%=      5-min Rain = 0
KSB1 140830Z 18008KT 19/14 A3016 RMK A01 T01900135  RH  070%=      5-min Rain = 0
KSB1 140831Z 18008KT 19/14 A3016 RMK A01 T01890135  RH  071%=      5-min Rain = 0
KSB1 140832Z 18008KT 19/14 A3015 RMK A01 T01890135  RH  071%=      5-min Rain = 0
KSB1 140833Z 18007KT 19/13 A3015 RMK A01 T01890134  RH  071%=      5-min Rain = 0
KSB1 140834Z 18006KT 19/14 A3015 RMK A01 T01890135  RH  071%=      5-min Rain = 0
KSB1 140835Z 18006KT 19/13 A3015 RMK A01 T01890133  RH  070%=      5-min Rain = 0
KSB1 140836Z 18008KT 19/13 A3015 RMK A01 T01890132  RH  070%=      5-min Rain = 0
KSB1 140837Z 18006KT 19/13 A3015 RMK A01 T01890131  RH  069%=      5-min Rain = 0
KSB1 140838Z 19006KT 19/13 A3015 RMK A01 T01890132  RH  069%=      5-min Rain = 0
KSB1 140839Z 18007KT 19/13 A3015 RMK A01 T01890132  RH  069%=      5-min Rain = 0
KSB1 140840Z 18006KT 19/13 A3015 RMK A01 T01890131  RH  069%=      5-min Rain = 0
KSB1 140841Z 18007KT 19/13 A3015 RMK A01 T01890131  RH  069%=      5-min Rain = 0
KSB1 140842Z 18006KT 19/13 A3015 RMK A01 T01890130  RH  069%=      5-min Rain = 0
KSB1 140843Z 19005KT 19/13 A3015 RMK A01 T01890130  RH  069%=      5-min Rain = 0
KSB1 140844Z 19005KT 19/13 A3015 RMK A01 T01880132  RH  070%=      5-min Rain = 0
KSB1 140845Z 18006KT 19/13 A3015 RMK A01 T01880130  RH  069%=      5-min Rain = 0
KSB1 140846Z 18007KT 19/13 A3015 RMK A01 T01880130  RH  069%=      5-min Rain = 0
KSB1 140847Z 18006KT 19/13 A3015 RMK A01 T01880130  RH  069%=      5-min Rain = 0
KSB1 140848Z 19006KT 19/13 A3015 RMK A01 T01880131  RH  069%=      5-min Rain = 0
KSB1 140849Z 18005KT 19/13 A3015 RMK A01 T01870129  RH  069%=      5-min Rain = 0
KSB1 140850Z 19005KT 19/13 A3015 RMK A01 T01870129  RH  069%=      5-min Rain = 0
KSB1 140851Z 19005KT 19/13 A3015 RMK A01 T01870130  RH  069%=      5-min Rain = 0
KSB1 140852Z 19005KT 19/13 A3015 RMK A01 T01870129  RH  069%=      5-min Rain = 0
KSB1 140853Z 18004KT 19/13 A3015 RMK A01 T01870130  RH  069%=      5-min Rain = 0
KSB1 140854Z 16006KT 19/13 A3015 RMK A01 T01870129  RH  069%=      5-min Rain = 0
KSB1 140855Z 15006KT 19/13 A3015 RMK A01 T01870127  RH  068%=      5-min Rain = 0
KSB1 140856Z 15006KT 19/13 A3015 RMK A01 T01880128  RH  068%=      5-min Rain = 0
KSB1 140857Z 15006KT 19/13 A3015 RMK A01 T01880127  RH  068%=      5-min Rain = 0
KSB1 140858Z 14007KT 19/13 A3015 RMK A01 T01890126  RH  067%=      5-min Rain = 0
KSB1 140859Z 14006KT 19/13 A3015 RMK A01 T01900127  RH  067%=      5-min Rain = 0
KSB1 140900Z 14007KT 19/13 A3015 RMK A01 T01910126  RH  066%=      5-min Rain = 0
KSB1 140901Z 14006KT 19/13 A3015 RMK A01 T01910126  RH  066%=      5-min Rain = 0
KSB1 140902Z 14005KT 19/13 A3015 RMK A01 T01920127  RH  066%=      5-min Rain = 0
KSB1 140903Z 14005KT 19/13 A3015 RMK A01 T01910127  RH  066%=      5-min Rain = 0
KSB1 140904Z 14005KT 19/13 A3015 RMK A01 T01910127  RH  066%=      5-min Rain = 0
KSB1 140905Z 14006KT 19/13 A3015 RMK A01 T01910126  RH  066%=      5-min Rain = 0
KSB1 140906Z 15005KT 19/13 A3015 RMK A01 T01910126  RH  066%=      5-min Rain = 0
KSB1 140907Z 14005KT 19/13 A3015 RMK A01 T01900126  RH  066%=      5-min Rain = 0
KSB1 140908Z 15004KT 19/13 A3015 RMK A01 T01900126  RH  066%=      5-min Rain = 0
KSB1 140909Z 15004KT 19/13 A3015 RMK A01 T01900126  RH  066%=      5-min Rain = 0
KSB1 140910Z 15004KT 19/13 A3015 RMK A01 T01900126  RH  066%=      5-min Rain = 0
KSB1 140911Z 16004KT 19/13 A3015 RMK A01 T01900126  RH  067%=      5-min Rain = 0
KSB1 140912Z 16004KT 19/13 A3015 RMK A01 T01890126  RH  067%=      5-min Rain = 0
KSB1 140913Z 16003KT 19/13 A3015 RMK A01 T01890125  RH  066%=      5-min Rain = 0
KSB1 140914Z 17003KT 19/12 A3015 RMK A01 T01890124  RH  066%=      5-min Rain = 0
KSB1 140915Z 17003KT 19/13 A3015 RMK A01 T01890125  RH  066%=      5-min Rain = 0
KSB1 140916Z 18003KT 19/13 A3015 RMK A01 T01890126  RH  067%=      5-min Rain = 0
KSB1 140917Z 18003KT 19/13 A3014 RMK A01 T01890126  RH  067%=      5-min Rain = 0
KSB1 140918Z 19003KT 19/13 A3014 RMK A01 T01890125  RH  066%=      5-min Rain = 0
KSB1 140919Z 19003KT 19/13 A3014 RMK A01 T01890125  RH  066%=      5-min Rain = 0
KSB1 140920Z 18004KT 19/12 A3014 RMK A01 T01890124  RH  066%=      5-min Rain = 0
KSB1 140921Z 17003KT 19/13 A3014 RMK A01 T01890126  RH  067%=      5-min Rain = 0
KSB1 140922Z 18003KT 19/13 A3014 RMK A01 T01890127  RH  067%=      5-min Rain = 0
KSB1 140923Z 16004KT 19/13 A3014 RMK A01 T01880126  RH  067%=      5-min Rain = 0
KSB1 140924Z 15004KT 19/13 A3014 RMK A01 T01880125  RH  067%=      5-min Rain = 0
KSB1 140925Z 15006KT 19/13 A3014 RMK A01 T01880126  RH  067%=      5-min Rain = 0
KSB1 140926Z 15005KT 19/13 A3014 RMK A01 T01880125  RH  067%=      5-min Rain = 0
KSB1 140927Z 14005KT 19/13 A3013 RMK A01 T01880127  RH  068%=      5-min Rain = 0
KSB1 140928Z 14006KT 19/13 A3013 RMK A01 T01880127  RH  068%=      5-min Rain = 0
KSB1 140929Z 14007KT 19/13 A3013 RMK A01 T01870125  RH  067%=      5-min Rain = 0
KSB1 140930Z 14006KT 19/13 A3013 RMK A01 T01880125  RH  067%=      5-min Rain = 0
KSB1 140931Z 14007KT 19/13 A3013 RMK A01 T01890125  RH  067%=      5-min Rain = 0
KSB1 140932Z 14008KT 19/13 A3013 RMK A01 T01890125  RH  066%=      5-min Rain = 0
KSB1 140933Z 14008KT 19/12 A3013 RMK A01 T01900123  RH  065%=      5-min Rain = 0
KSB1 140934Z 15009KT 19/12 A3013 RMK A01 T01910124  RH  065%=      5-min Rain = 0
KSB1 140935Z 15009KT 19/12 A3013 RMK A01 T01910123  RH  065%=      5-min Rain = 0
KSB1 140936Z 15009KT 19/12 A3013 RMK A01 T01910123  RH  064%=      5-min Rain = 0
KSB1 140937Z 15009KT 19/12 A3013 RMK A01 T01920122  RH  064%=      5-min Rain = 0
KSB1 140938Z 14010KT 19/12 A3013 RMK A01 T01930121  RH  063%=      5-min Rain = 0
KSB1 140939Z 15009KT 19/12 A3013 RMK A01 T01940122  RH  063%=      5-min Rain = 0
KSB1 140940Z 14009KT 19/12 A3013 RMK A01 T01940122  RH  063%=      5-min Rain = 0
KSB1 140941Z 14009KT 19/12 A3013 RMK A01 T01940123  RH  063%=      5-min Rain = 0
KSB1 140942Z 14008KT 19/12 A3013 RMK A01 T01940123  RH  063%=      5-min Rain = 0
KSB1 140943Z 14009KT 19/12 A3013 RMK A01 T01940123  RH  064%=      5-min Rain = 0
KSB1 140944Z 14010KT 19/12 A3013 RMK A01 T01940122  RH  063%=      5-min Rain = 0
KSB1 140945Z 15009KT 20/12 A3013 RMK A01 T01950121  RH  062%=      5-min Rain = 0
KSB1 140946Z 15009KT 20/12 A3013 RMK A01 T01950122  RH  063%=      5-min Rain = 0
KSB1 140947Z 15009KT 20/12 A3013 RMK A01 T01960122  RH  062%=      5-min Rain = 0
KSB1 140948Z 15009KT 20/12 A3013 RMK A01 T01950122  RH  063%=      5-min Rain = 0
KSB1 140949Z 14010KT 20/12 A3013 RMK A01 T01960122  RH  062%=      5-min Rain = 0
KSB1 140950Z 14008KT 20/12 A3012 RMK A01 T01960122  RH  062%=      5-min Rain = 0
KSB1 140951Z 14008KT 20/12 A3012 RMK A01 T01950123  RH  063%=      5-min Rain = 0
KSB1 140952Z 14009KT 20/12 A3012 RMK A01 T01950122  RH  063%=      5-min Rain = 0
KSB1 140953Z 13008KT 20/12 A3012 RMK A01 T01950122  RH  062%=      5-min Rain = 0
KSB1 140954Z 13009KT 20/12 A3012 RMK A01 T01950122  RH  063%=      5-min Rain = 0
KSB1 140955Z 13009KT 20/12 A3012 RMK A01 T01950121  RH  062%=      5-min Rain = 0
KSB1 140956Z 13008KT 20/12 A3012 RMK A01 T01950121  RH  062%=      5-min Rain = 0
KSB1 140957Z 13008KT 20/12 A3012 RMK A01 T01960122  RH  062%=      5-min Rain = 0
KSB1 140958Z 13010KT 20/12 A3012 RMK A01 T01960121  RH  062%=      5-min Rain = 0
KSB1 140959Z 14010KT 20/12 A3012 RMK A01 T01960121  RH  062%=      5-min Rain = 0
KSB1 141000Z 14011KT 20/12 A3012 RMK A01 T01960120  RH  062%=      5-min Rain = 0
KSB1 141001Z 14008KT 20/12 A3012 RMK A01 T01970122  RH  062%=      5-min Rain = 0
KSB1 141002Z 13010KT 20/12 A3011 RMK A01 T01970122  RH  062%=      5-min Rain = 0
KSB1 141003Z 13010KT 20/12 A3011 RMK A01 T01960121  RH  062%=      5-min Rain = 0
KSB1 141004Z 13008KT 20/12 A3011 RMK A01 T01960121  RH  062%=      5-min Rain = 0
KSB1 141005Z 14007KT 20/12 A3011 RMK A01 T01970122  RH  062%=      5-min Rain = 0
KSB1 141006Z 14009KT 20/12 A3011 RMK A01 T01970122  RH  062%=      5-min Rain = 0
KSB1 141007Z 14010G15KT 20/12 A3011 RMK A01 T01970123  RH  062%=      5-min Rain = 0
KSB1 141008Z 14009G15KT 20/12 A3012 RMK A01 T01960121  RH  062%=      5-min Rain = 0
KSB1 141009Z 15009KT 20/12 A3012 RMK A01 T01970122  RH  062%=      5-min Rain = 0
KSB1 141010Z 15007KT 20/12 A3012 RMK A01 T01970122  RH  062%=      5-min Rain = 0
KSB1 141011Z 15009KT 20/12 A3012 RMK A01 T01960122  RH  062%=      5-min Rain = 0
KSB1 141012Z 16006KT 20/12 A3012 RMK A01 T01960122  RH  062%=      5-min Rain = 0
KSB1 141013Z 16006KT 20/12 A3012 RMK A01 T01960123  RH  063%=      5-min Rain = 0
KSB1 141014Z 17007KT 20/12 A3012 RMK A01 T01950123  RH  063%=      5-min Rain = 0
KSB1 141015Z 18007KT 20/12 A3012 RMK A01 T01950122  RH  063%=      5-min Rain = 0
KSB1 141016Z 18006KT 20/12 A3012 RMK A01 T01950123  RH  063%=      5-min Rain = 0
KSB1 141017Z 20005KT 20/12 A3012 RMK A01 T01950123  RH  063%=      5-min Rain = 0
KSB1 141018Z 20006KT 19/12 A3012 RMK A01 T01940123  RH  064%=      5-min Rain = 0
KSB1 141019Z 20005KT 19/12 A3012 RMK A01 T01940124  RH  064%=      5-min Rain = 0
KSB1 141020Z 20005KT 19/12 A3012 RMK A01 T01930123  RH  064%=      5-min Rain = 0
KSB1 141021Z 19006KT 19/12 A3012 RMK A01 T01920124  RH  065%=      5-min Rain = 0
KSB1 141022Z 20005KT 19/12 A3012 RMK A01 T01910124  RH  065%=      5-min Rain = 0
KSB1 141023Z 22005KT 19/12 A3012 RMK A01 T01910124  RH  065%=      5-min Rain = 0
KSB1 141024Z 21006KT 19/12 A3012 RMK A01 T01910123  RH  065%=      5-min Rain = 0
KSB1 141025Z 23005KT 19/12 A3012 RMK A01 T01900123  RH  065%=      5-min Rain = 0
KSB1 141026Z 20006KT 19/12 A3012 RMK A01 T01910124  RH  065%=      5-min Rain = 0
KSB1 141027Z 19007KT 19/12 A3012 RMK A01 T01900124  RH  065%=      5-min Rain = 0
KSB1 141028Z 18006KT 19/12 A3012 RMK A01 T01900123  RH  065%=      5-min Rain = 0
KSB1 141029Z 18004KT 19/12 A3012 RMK A01 T01910123  RH  065%=      5-min Rain = 0
KSB1 141030Z 17007KT 19/12 A3012 RMK A01 T01910123  RH  065%=      5-min Rain = 0
KSB1 141031Z 19005KT 19/12 A3012 RMK A01 T01910123  RH  065%=      5-min Rain = 0
KSB1 141032Z 20005KT 19/12 A3011 RMK A01 T01910123  RH  065%=      5-min Rain = 0
KSB1 141033Z 19005KT 19/12 A3011 RMK A01 T01910124  RH  065%=      5-min Rain = 0
KSB1 141034Z 18005KT 19/12 A3011 RMK A01 T01910124  RH  065%=      5-min Rain = 0
KSB1 141035Z 19006KT 19/12 A3011 RMK A01 T01910124  RH  065%=      5-min Rain = 0
KSB1 141036Z 18005KT 19/12 A3011 RMK A01 T01900124  RH  065%=      5-min Rain = 0
KSB1 141037Z 18006KT 19/13 A3011 RMK A01 T01890125  RH  066%=      5-min Rain = 0
KSB1 141038Z 18006KT 19/13 A3011 RMK A01 T01890125  RH  066%=      5-min Rain = 0
KSB1 141039Z 18006KT 19/13 A3011 RMK A01 T01880125  RH  067%=      5-min Rain = 0
KSB1 141040Z 18007KT 19/12 A3011 RMK A01 T01880124  RH  066%=      5-min Rain = 0
KSB1 141041Z 18007KT 19/12 A3011 RMK A01 T01880123  RH  066%=      5-min Rain = 0
KSB1 141042Z 18006KT 19/12 A3011 RMK A01 T01890124  RH  066%=      5-min Rain = 0
KSB1 141043Z 17006KT 19/12 A3011 RMK A01 T01890124  RH  066%=      5-min Rain = 0
KSB1 141044Z 17006KT 19/12 A3011 RMK A01 T01880123  RH  066%=      5-min Rain = 0
KSB1 141045Z 17006KT 19/12 A3011 RMK A01 T01880123  RH  066%=      5-min Rain = 0
KSB1 141046Z 18006KT 19/12 A3012 RMK A01 T01890123  RH  065%=      5-min Rain = 0
KSB1 141047Z 17006KT 19/12 A3012 RMK A01 T01890124  RH  066%=      5-min Rain = 0
KSB1 141048Z 18006KT 19/12 A3011 RMK A01 T01890124  RH  066%=      5-min Rain = 0
KSB1 141049Z 17006KT 19/12 A3011 RMK A01 T01880123  RH  066%=      5-min Rain = 0
KSB1 141050Z 17007KT 19/12 A3011 RMK A01 T01880123  RH  066%=      5-min Rain = 0
KSB1 141051Z 17006KT 19/12 A3011 RMK A01 T01870124  RH  067%=      5-min Rain = 0
KSB1 141052Z 17007KT 19/12 A3011 RMK A01 T01860124  RH  067%=      5-min Rain = 0
KSB1 141053Z 17007KT 19/12 A3011 RMK A01 T01860123  RH  067%=      5-min Rain = 0
KSB1 141054Z 17006KT 19/12 A3011 RMK A01 T01860123  RH  067%=      5-min Rain = 0
KSB1 141055Z 17007KT 19/12 A3012 RMK A01 T01860123  RH  067%=      5-min Rain = 0
KSB1 141056Z 16007KT 19/12 A3011 RMK A01 T01860123  RH  067%=      5-min Rain = 0
KSB1 141057Z 16007KT 19/12 A3011 RMK A01 T01860122  RH  066%=      5-min Rain = 0
KSB1 141058Z 15007KT 19/12 A3011 RMK A01 T01860122  RH  066%=      5-min Rain = 0
KSB1 141059Z 15007KT 19/12 A3011 RMK A01 T01870122  RH  066%=      5-min Rain = 0
KSB1 141100Z 15006KT 19/12 A3011 RMK A01 T01880122  RH  066%=      5-min Rain = 0
KSB1 141101Z 15006KT 19/12 A3011 RMK A01 T01880122  RH  065%=      5-min Rain = 0
KSB1 141102Z 16006KT 19/12 A3011 RMK A01 T01880122  RH  065%=      5-min Rain = 0
KSB1 141103Z 16006KT 19/12 A3011 RMK A01 T01880122  RH  065%=      5-min Rain = 0
KSB1 141104Z 16005KT 19/12 A3011 RMK A01 T01880122  RH  065%=      5-min Rain = 0
KSB1 141105Z 16006KT 19/12 A3011 RMK A01 T01880122  RH  066%=      5-min Rain = 0
KSB1 141106Z 15006KT 19/12 A3011 RMK A01 T01870122  RH  066%=      5-min Rain = 0
KSB1 141107Z 14006KT 19/12 A3011 RMK A01 T01870122  RH  066%=      5-min Rain = 0
KSB1 141108Z 15006KT 19/12 A3011 RMK A01 T01870122  RH  066%=      5-min Rain = 0
KSB1 141109Z 16006KT 19/12 A3011 RMK A01 T01870122  RH  066%=      5-min Rain = 0
KSB1 141110Z 16006KT 19/12 A3011 RMK A01 T01870122  RH  066%=      5-min Rain = 0
KSB1 141111Z 16005KT 19/12 A3011 RMK A01 T01860121  RH  066%=      5-min Rain = 0
KSB1 141112Z 16005KT 19/12 A3011 RMK A01 T01860121  RH  066%=      5-min Rain = 0
KSB1 141113Z 15005KT 19/12 A3011 RMK A01 T01860121  RH  066%=      5-min Rain = 0
KSB1 141114Z 15005KT 19/12 A3011 RMK A01 T01860122  RH  066%=      5-min Rain = 0
KSB1 141115Z 15006KT 19/12 A3011 RMK A01 T01850121  RH  066%=      5-min Rain = 0
KSB1 141116Z 15006KT 19/12 A3011 RMK A01 T01850121  RH  066%=      5-min Rain = 0
KSB1 141117Z 14006KT 19/12 A3011 RMK A01 T01850121  RH  066%=      5-min Rain = 0
KSB1 141118Z 14007KT 19/12 A3011 RMK A01 T01850121  RH  066%=      5-min Rain = 0
KSB1 141119Z 14006KT 19/12 A3011 RMK A01 T01850121  RH  066%=      5-min Rain = 0
KSB1 141120Z 15006KT 19/12 A3011 RMK A01 T01850121  RH  066%=      5-min Rain = 0
KSB1 141121Z 15006KT 19/12 A3011 RMK A01 T01850121  RH  066%=      5-min Rain = 0
KSB1 141122Z 15006KT 19/12 A3011 RMK A01 T01850121  RH  066%=      5-min Rain = 0
KSB1 141123Z 15006KT 19/12 A3011 RMK A01 T01850122  RH  067%=      5-min Rain = 0
KSB1 141124Z 15006KT 18/12 A3011 RMK A01 T01840121  RH  067%=      5-min Rain = 0
KSB1 141125Z 15006KT 18/12 A3011 RMK A01 T01830121  RH  067%=      5-min Rain = 0
KSB1 141126Z 15006KT 18/12 A3011 RMK A01 T01830121  RH  067%=      5-min Rain = 0
KSB1 141127Z 15006KT 18/12 A3011 RMK A01 T01830121  RH  067%=      5-min Rain = 0
KSB1 141128Z 15006KT 18/12 A3011 RMK A01 T01820121  RH  067%=      5-min Rain = 0
KSB1 141129Z 15005KT 18/12 A3011 RMK A01 T01820121  RH  068%=      5-min Rain = 0
KSB1 141130Z 15005KT 18/12 A3011 RMK A01 T01820121  RH  068%=      5-min Rain = 0
KSB1 141131Z 15005KT 18/12 A3011 RMK A01 T01820122  RH  068%=      5-min Rain = 0
KSB1 141132Z 14003KT 18/12 A3011 RMK A01 T01810123  RH  069%=      5-min Rain = 0
KSB1 141133Z 14003KT 18/12 A3011 RMK A01 T01810122  RH  069%=      5-min Rain = 0
KSB1 141134Z 14004KT 18/12 A3011 RMK A01 T01800120  RH  068%=      5-min Rain = 0
KSB1 141135Z 14005KT 18/12 A3011 RMK A01 T01810121  RH  068%=      5-min Rain = 0
KSB1 141136Z 14005KT 18/12 A3011 RMK A01 T01810120  RH  067%=      5-min Rain = 0
KSB1 141137Z 14005KT 18/12 A3011 RMK A01 T01820120  RH  067%=      5-min Rain = 0
KSB1 141138Z 14005KT 18/12 A3011 RMK A01 T01840120  RH  067%=      5-min Rain = 0
KSB1 141139Z 13005KT 18/12 A3011 RMK A01 T01840121  RH  067%=      5-min Rain = 0
KSB1 141140Z 13006KT 18/12 A3011 RMK A01 T01840120  RH  066%=      5-min Rain = 0
KSB1 141141Z 13005KT 19/12 A3011 RMK A01 T01850121  RH  066%=      5-min Rain = 0
KSB1 141142Z 13005KT 19/12 A3011 RMK A01 T01850122  RH  066%=      5-min Rain = 0
KSB1 141143Z 13004KT 19/12 A3011 RMK A01 T01850122  RH  067%=      5-min Rain = 0
KSB1 141144Z 12004KT 18/12 A3011 RMK A01 T01840122  RH  067%=      5-min Rain = 0
KSB1 141145Z 13004KT 18/12 A3011 RMK A01 T01840122  RH  067%=      5-min Rain = 0
KSB1 141146Z 13003KT 18/12 A3011 RMK A01 T01840121  RH  067%=      5-min Rain = 0
KSB1 141147Z 15002KT 18/12 A3011 RMK A01 T01830122  RH  067%=      5-min Rain = 0
KSB1 141148Z 24003KT 18/12 A3011 RMK A01 T01820123  RH  068%=      5-min Rain = 0
KSB1 141149Z 23003KT 18/12 A3011 RMK A01 T01810121  RH  068%=      5-min Rain = 0
KSB1 141150Z 18003KT 18/12 A3011 RMK A01 T01810118  RH  067%=      5-min Rain = 0
KSB1 141151Z 19002KT 18/12 A3011 RMK A01 T01820119  RH  066%=      5-min Rain = 0
KSB1 141152Z 19004KT 18/12 A3011 RMK A01 T01840119  RH  066%=      5-min Rain = 0
KSB1 141153Z 17004KT 19/12 A3011 RMK A01 T01860120  RH  065%=      5-min Rain = 0
KSB1 141154Z 19003KT 19/12 A3011 RMK A01 T01870121  RH  065%=      5-min Rain = 0
KSB1 141155Z 20003KT 19/12 A3011 RMK A01 T01870122  RH  066%=      5-min Rain = 0
KSB1 141156Z 22002KT 19/12 A3011 RMK A01 T01860121  RH  066%=      5-min Rain = 0
KSB1 141157Z 21002KT 18/12 A3011 RMK A01 T01840120  RH  066%=      5-min Rain = 0
KSB1 141158Z 21001KT 18/12 A3011 RMK A01 T01840121  RH  067%=      5-min Rain = 0
KSB1 141159Z 19001KT 18/12 A3011 RMK A01 T01830121  RH  067%=      5-min Rain = 0
KSB1 141200Z 00000KT 18/12 A3011 RMK A01 T01830120  RH  067%=      5-min Rain = 0
KSB1 141201Z 00000KT 18/12 A3011 RMK A01 T01830120  RH  067%=      5-min Rain = 0
KSB1 141202Z 00000KT 18/12 A3011 RMK A01 T01830119  RH  066%=      5-min Rain = 0
KSB1 141203Z 20001KT 18/12 A3011 RMK A01 T01830118  RH  066%=      5-min Rain = 0
KSB1 141204Z 36002KT 18/12 A3011 RMK A01 T01830118  RH  066%=      5-min Rain = 0
KSB1 141205Z 35002KT 18/12 A3011 RMK A01 T01840118  RH  065%=      5-min Rain = 0
KSB1 141206Z 36002KT 19/12 A3011 RMK A01 T01850120  RH  066%=      5-min Rain = 0
KSB1 141207Z 36003KT 19/12 A3011 RMK A01 T01850122  RH  067%=      5-min Rain = 0
KSB1 141208Z 00004KT 19/12 A3011 RMK A01 T01850122  RH  067%=      5-min Rain = 0
KSB1 141209Z 01004KT 18/12 A3011 RMK A01 T01840123  RH  068%=      5-min Rain = 0
KSB1 141210Z 01004KT 18/12 A3011 RMK A01 T01830123  RH  068%=      5-min Rain = 0
KSB1 141211Z 01004KT 18/12 A3011 RMK A01 T01830123  RH  068%=      5-min Rain = 0
KSB1 141212Z 01003KT 18/13 A3011 RMK A01 T01830125  RH  069%=      5-min Rain = 0
KSB1 141213Z 02003KT 18/12 A3011 RMK A01 T01820124  RH  069%=      5-min Rain = 0
KSB1 141214Z 04003KT 18/12 A3011 RMK A01 T01820122  RH  068%=      5-min Rain = 0
KSB1 141215Z 05003KT 18/12 A3011 RMK A01 T01830121  RH  067%=      5-min Rain = 0
KSB1 141216Z 05002KT 18/12 A3011 RMK A01 T01840121  RH  067%=      5-min Rain = 0
KSB1 141217Z 05002KT 18/12 A3011 RMK A01 T01840121  RH  066%=      5-min Rain = 0
KSB1 141218Z 06001KT 19/12 A3011 RMK A01 T01850120  RH  066%=      5-min Rain = 0
KSB1 141219Z 09002KT 19/12 A3011 RMK A01 T01860121  RH  066%=      5-min Rain = 0
KSB1 141220Z 12001KT 19/12 A3011 RMK A01 T01870121  RH  066%=      5-min Rain = 0
KSB1 141221Z 12002KT 19/12 A3011 RMK A01 T01870121  RH  065%=      5-min Rain = 0
KSB1 141222Z 13002KT 19/12 A3011 RMK A01 T01880121  RH  065%=      5-min Rain = 0
KSB1 141223Z 14002KT 19/12 A3011 RMK A01 T01890121  RH  064%=      5-min Rain = 0
KSB1 141224Z 15002KT 19/12 A3011 RMK A01 T01900122  RH  065%=      5-min Rain = 0
KSB1 141225Z 14002KT 19/12 A3011 RMK A01 T01900124  RH  066%=      5-min Rain = 0
KSB1 141226Z 15002KT 19/12 A3011 RMK A01 T01900124  RH  065%=      5-min Rain = 0
KSB1 141227Z 20001KT 19/13 A3011 RMK A01 T01900125  RH  066%=      5-min Rain = 0
KSB1 141228Z 21001KT 19/13 A3011 RMK A01 T01890125  RH  066%=      5-min Rain = 0
KSB1 141229Z 23001KT 19/13 A3011 RMK A01 T01880125  RH  067%=      5-min Rain = 0
KSB1 141230Z 28001KT 19/13 A3011 RMK A01 T01880125  RH  067%=      5-min Rain = 0
KSB1 141231Z 31001KT 19/13 A3011 RMK A01 T01880126  RH  067%=      5-min Rain = 0
KSB1 141232Z 35002KT 19/13 A3011 RMK A01 T01890130  RH  068%=      5-min Rain = 0
KSB1 141233Z 02002KT 19/13 A3011 RMK A01 T01910129  RH  067%=      5-min Rain = 0
KSB1 141234Z 01003KT 19/13 A3011 RMK A01 T01910125  RH  065%=      5-min Rain = 0
KSB1 141235Z 01003KT 19/12 A3011 RMK A01 T01910123  RH  065%=      5-min Rain = 0
KSB1 141236Z 00003KT 19/13 A3011 RMK A01 T01910127  RH  066%=      5-min Rain = 0
KSB1 141237Z 00003KT 19/13 A3011 RMK A01 T01910129  RH  067%=      5-min Rain = 0
KSB1 141238Z 00002KT 19/13 A3011 RMK A01 T01910129  RH  067%=      5-min Rain = 0
KSB1 141239Z 00002KT 19/13 A3011 RMK A01 T01910128  RH  067%=      5-min Rain = 0
KSB1 141240Z 35001KT 19/13 A3011 RMK A01 T01910128  RH  067%=      5-min Rain = 0
KSB1 141241Z 31001KT 19/13 A3011 RMK A01 T01910128  RH  067%=      5-min Rain = 0
KSB1 141242Z 25002KT 19/13 A3011 RMK A01 T01910126  RH  066%=      5-min Rain = 0
KSB1 141243Z 26002KT 19/13 A3011 RMK A01 T01900125  RH  066%=      5-min Rain = 0
KSB1 141244Z 26001KT 19/12 A3011 RMK A01 T01910124  RH  065%=      5-min Rain = 0
KSB1 141245Z 27002KT 19/12 A3011 RMK A01 T01910124  RH  065%=      5-min Rain = 0
KSB1 141246Z 26002KT 19/13 A3011 RMK A01 T01920125  RH  065%=      5-min Rain = 0
KSB1 141247Z 26003KT 19/13 A3011 RMK A01 T01930127  RH  065%=      5-min Rain = 0
KSB1 141248Z 25003KT 19/13 A3011 RMK A01 T01940129  RH  066%=      5-min Rain = 0
KSB1 141249Z 24004KT 19/13 A3011 RMK A01 T01940130  RH  066%=      5-min Rain = 0
KSB1 141250Z 24004KT 19/13 A3011 RMK A01 T01940129  RH  066%=      5-min Rain = 0
KSB1 141251Z 23004KT 19/13 A3011 RMK A01 T01940129  RH  066%=      5-min Rain = 0
KSB1 141252Z 22004KT 19/13 A3011 RMK A01 T01940127  RH  065%=      5-min Rain = 0
KSB1 141253Z 22004KT 20/13 A3011 RMK A01 T01950128  RH  065%=      5-min Rain = 0
KSB1 141254Z 22004KT 20/13 A3011 RMK A01 T01950130  RH  066%=      5-min Rain = 0
KSB1 141255Z 24004KT 20/13 A3011 RMK A01 T01960131  RH  066%=      5-min Rain = 0
KSB1 141256Z 24005KT 20/13 A3011 RMK A01 T01960132  RH  066%=      5-min Rain = 0
KSB1 141257Z 24005KT 20/13 A3011 RMK A01 T01960132  RH  066%=      5-min Rain = 0
KSB1 141258Z 23004KT 20/13 A3011 RMK A01 T01960132  RH  066%=      5-min Rain = 0
KSB1 141259Z 23005KT 20/13 A3011 RMK A01 T01960131  RH  066%=      5-min Rain = 0
KSB1 141300Z 21005KT 20/13 A3011 RMK A01 T01970131  RH  066%=      5-min Rain = 0
KSB1 141301Z 22005KT 20/13 A3011 RMK A01 T01980131  RH  065%=      5-min Rain = 0
KSB1 141302Z 22005KT 20/13 A3011 RMK A01 T01990132  RH  065%=      5-min Rain = 0
KSB1 141303Z 22006KT 20/13 A3011 RMK A01 T01990132  RH  065%=      5-min Rain = 0
KSB1 141304Z 22005KT 20/13 A3011 RMK A01 T02010130  RH  064%=      5-min Rain = 0
KSB1 141305Z 22004KT 20/13 A3011 RMK A01 T02010128  RH  063%=      5-min Rain = 0
KSB1 141306Z 23003KT 20/13 A3011 RMK A01 T02020128  RH  062%=      5-min Rain = 0
KSB1 141307Z 24004KT 20/13 A3011 RMK A01 T02030129  RH  062%=      5-min Rain = 0
KSB1 141308Z 23003KT 20/13 A3011 RMK A01 T02040131  RH  063%=      5-min Rain = 0
KSB1 141309Z 22003KT 21/13 A3011 RMK A01 T02050132  RH  063%=      5-min Rain = 0
KSB1 141310Z 22003KT 21/13 A3011 RMK A01 T02050132  RH  063%=      5-min Rain = 0
KSB1 141311Z 21003KT 21/13 A3011 RMK A01 T02060131  RH  062%=      5-min Rain = 0
KSB1 141312Z 21004KT 21/13 A3011 RMK A01 T02060132  RH  062%=      5-min Rain = 0
KSB1 141313Z 21004KT 21/13 A3011 RMK A01 T02060130  RH  062%=      5-min Rain = 0
KSB1 141314Z 20004KT 21/13 A3011 RMK A01 T02060129  RH  061%=      5-min Rain = 0
KSB1 141315Z 20004KT 21/13 A3011 RMK A01 T02070131  RH  062%=      5-min Rain = 0
KSB1 141316Z 19004KT 21/13 A3011 RMK A01 T02070131  RH  062%=      5-min Rain = 0
KSB1 141317Z 19005KT 21/13 A3011 RMK A01 T02070129  RH  061%=      5-min Rain = 0
KSB1 141318Z 19005KT 21/13 A3011 RMK A01 T02070128  RH  060%=      5-min Rain = 0
KSB1 141319Z 19005KT 21/13 A3011 RMK A01 T02080130  RH  061%=      5-min Rain = 0
KSB1 141320Z 19004KT 21/13 A3011 RMK A01 T02080129  RH  060%=      5-min Rain = 0
KSB1 141321Z 18005KT 21/13 A3011 RMK A01 T02080127  RH  060%=      5-min Rain = 0
KSB1 141322Z 18005KT 21/13 A3011 RMK A01 T02090127  RH  059%=      5-min Rain = 0
KSB1 141323Z 19006KT 21/13 A3011 RMK A01 T02090128  RH  060%=      5-min Rain = 0
KSB1 141324Z 19004KT 21/13 A3011 RMK A01 T02090127  RH  060%=      5-min Rain = 0
KSB1 141325Z 19004KT 21/13 A3011 RMK A01 T02090131  RH  061%=      5-min Rain = 0
KSB1 141326Z 19004KT 21/13 A3011 RMK A01 T02100130  RH  060%=      5-min Rain = 0
KSB1 141327Z 19005KT 21/13 A3011 RMK A01 T02100129  RH  060%=      5-min Rain = 0
KSB1 141328Z 19005KT 21/13 A3011 RMK A01 T02100129  RH  060%=      5-min Rain = 0
KSB1 141329Z 20006KT 21/13 A3011 RMK A01 T02110129  RH  059%=      5-min Rain = 0
KSB1 141330Z 20004KT 21/13 A3011 RMK A01 T02110129  RH  060%=      5-min Rain = 0
KSB1 141331Z 20005KT 21/13 A3011 RMK A01 T02110128  RH  059%=      5-min Rain = 0
KSB1 141332Z 20006KT 21/13 A3011 RMK A01 T02120128  RH  058%=      5-min Rain = 0
KSB1 141333Z 20006KT 21/13 A3011 RMK A01 T02130126  RH  058%=      5-min Rain = 0
KSB1 141334Z 20007KT 21/13 A3011 RMK A01 T02130127  RH  058%=      5-min Rain = 0
KSB1 141335Z 19006KT 21/13 A3011 RMK A01 T02140127  RH  058%=      5-min Rain = 0
KSB1 141336Z 19006KT 22/13 A3011 RMK A01 T02150129  RH  058%=      5-min Rain = 0
KSB1 141337Z 20007KT 22/13 A3011 RMK A01 T02150128  RH  058%=      5-min Rain = 0
KSB1 141338Z 20007KT 22/13 A3011 RMK A01 T02160128  RH  058%=      5-min Rain = 0
KSB1 141339Z 19006KT 22/13 A3011 RMK A01 T02160129  RH  058%=      5-min Rain = 0
KSB1 141340Z 18006KT 22/13 A3011 RMK A01 T02160129  RH  058%=      5-min Rain = 0
KSB1 141341Z 18007KT 22/13 A3011 RMK A01 T02160127  RH  057%=      5-min Rain = 0
KSB1 141342Z 18006KT 22/13 A3011 RMK A01 T02160127  RH  057%=      5-min Rain = 0
KSB1 141343Z 19006KT 22/13 A3011 RMK A01 T02170129  RH  057%=      5-min Rain = 0
KSB1 141344Z 19006KT 22/13 A3011 RMK A01 T02170128  RH  057%=      5-min Rain = 0
KSB1 141345Z 19005KT 22/13 A3011 RMK A01 T02170130  RH  057%=      5-min Rain = 0
KSB1 141346Z 20006KT 22/13 A3011 RMK A01 T02180130  RH  057%=      5-min Rain = 0
KSB1 141347Z 19005KT 22/13 A3011 RMK A01 T02180128  RH  056%=      5-min Rain = 0
KSB1 141348Z 19004KT 22/13 A3011 RMK A01 T02190129  RH  057%=      5-min Rain = 0
KSB1 141349Z 19006KT 22/13 A3011 RMK A01 T02190129  RH  057%=      5-min Rain = 0
KSB1 141350Z 19005KT 22/13 A3012 RMK A01 T02190128  RH  056%=      5-min Rain = 0
KSB1 141351Z 19005KT 22/13 A3012 RMK A01 T02190129  RH  056%=      5-min Rain = 0
KSB1 141352Z 19004KT 22/13 A3012 RMK A01 T02200127  RH  055%=      5-min Rain = 0
KSB1 141353Z 19005KT 22/13 A3012 RMK A01 T02200128  RH  056%=      5-min Rain = 0
KSB1 141354Z 19005KT 22/13 A3012 RMK A01 T02210127  RH  055%=      5-min Rain = 0
KSB1 141355Z 18005KT 22/13 A3012 RMK A01 T02210128  RH  056%=      5-min Rain = 0
KSB1 141356Z 17005KT 22/13 A3012 RMK A01 T02220128  RH  055%=      5-min Rain = 0
KSB1 141357Z 16004KT 22/13 A3012 RMK A01 T02230128  RH  055%=      5-min Rain = 0
KSB1 141358Z 18004KT 22/13 A3012 RMK A01 T02230128  RH  055%=      5-min Rain = 0
KSB1 141359Z 19005KT 22/13 A3012 RMK A01 T02240127  RH  054%=      5-min Rain = 0
KSB1 141400Z 19005KT 23/13 A3012 RMK A01 T02250127  RH  054%=      5-min Rain = 0
KSB1 141401Z 20004KT 23/13 A3012 RMK A01 T02250128  RH  054%=      5-min Rain = 0
KSB1 141402Z 19004KT 23/13 A3012 RMK A01 T02250127  RH  054%=      5-min Rain = 0
KSB1 141403Z 20004KT 23/13 A3012 RMK A01 T02260130  RH  054%=      5-min Rain = 0
KSB1 141404Z 20005KT 23/13 A3012 RMK A01 T02280130  RH  054%=      5-min Rain = 0
KSB1 141405Z 21004KT 23/13 A3012 RMK A01 T02290131  RH  054%=      5-min Rain = 0
KSB1 141406Z 21005KT 23/13 A3012 RMK A01 T02300130  RH  053%=      5-min Rain = 0
KSB1 141407Z 21005KT 23/13 A3012 RMK A01 T02300127  RH  052%=      5-min Rain = 0
KSB1 141408Z 20004KT 23/13 A3012 RMK A01 T02300126  RH  052%=      5-min Rain = 0
KSB1 141409Z 20005KT 23/13 A3012 RMK A01 T02290126  RH  052%=      5-min Rain = 0
KSB1 141410Z 21006KT 23/13 A3012 RMK A01 T02280126  RH  052%=      5-min Rain = 0
KSB1 141411Z 21005KT 23/13 A3012 RMK A01 T02280125  RH  052%=      5-min Rain = 0
KSB1 141412Z 20005KT 23/13 A3012 RMK A01 T02280128  RH  053%=      5-min Rain = 0
KSB1 141413Z 20005KT 23/13 A3012 RMK A01 T02280126  RH  052%=      5-min Rain = 0
KSB1 141414Z 20005KT 23/13 A3012 RMK A01 T02280129  RH  053%=      5-min Rain = 0
KSB1 141415Z 21006KT 23/13 A3012 RMK A01 T02290126  RH  052%=      5-min Rain = 0
KSB1 141416Z 20006KT 23/13 A3012 RMK A01 T02300128  RH  053%=      5-min Rain = 0
KSB1 141417Z 19006KT 23/13 A3012 RMK A01 T02310127  RH  052%=      5-min Rain = 0
KSB1 141418Z 20005KT 23/13 A3012 RMK A01 T02310128  RH  052%=      5-min Rain = 0
KSB1 141419Z 21005KT 23/13 A3012 RMK A01 T02300129  RH  053%=      5-min Rain = 0
KSB1 141420Z 21006KT 23/13 A3012 RMK A01 T02300128  RH  053%=      5-min Rain = 0
KSB1 141421Z 21006KT 23/13 A3012 RMK A01 T02300128  RH  053%=      5-min Rain = 0
KSB1 141422Z 21006KT 23/13 A3012 RMK A01 T02300128  RH  053%=      5-min Rain = 0
KSB1 141423Z 20007KT 23/13 A3012 RMK A01 T02290128  RH  053%=      5-min Rain = 0
KSB1 141424Z 21006KT 23/13 A3012 RMK A01 T02300128  RH  053%=      5-min Rain = 0
KSB1 141425Z 21006KT 23/13 A3012 RMK A01 T02300130  RH  053%=      5-min Rain = 0
KSB1 141426Z 21006KT 23/13 A3012 RMK A01 T02310127  RH  052%=      5-min Rain = 0
KSB1 141427Z 22006KT 23/13 A3012 RMK A01 T02310130  RH  053%=      5-min Rain = 0
KSB1 141428Z 21006KT 23/13 A3012 RMK A01 T02320130  RH  053%=      5-min Rain = 0
KSB1 141429Z 21007KT 23/13 A3012 RMK A01 T02330131  RH  053%=      5-min Rain = 0
KSB1 141430Z 20007KT 23/13 A3012 RMK A01 T02340129  RH  052%=      5-min Rain = 0
KSB1 141431Z 21007KT 23/13 A3012 RMK A01 T02340128  RH  051%=      5-min Rain = 0
KSB1 141432Z 21007KT 23/13 A3012 RMK A01 T02340129  RH  052%=      5-min Rain = 0
KSB1 141433Z 22006KT 24/13 A3012 RMK A01 T02350130  RH  052%=      5-min Rain = 0
KSB1 141434Z 22006KT 24/13 A3012 RMK A01 T02350133  RH  052%=      5-min Rain = 0
KSB1 141435Z 21007KT 24/13 A3012 RMK A01 T02370132  RH  052%=      5-min Rain = 0
KSB1 141436Z 21008KT 24/13 A3012 RMK A01 T02370129  RH  051%=      5-min Rain = 0
KSB1 141437Z 21008KT 24/13 A3012 RMK A01 T02370129  RH  051%=      5-min Rain = 0
KSB1 141438Z 21008KT 24/13 A3012 RMK A01 T02370126  RH  050%=      5-min Rain = 0
KSB1 141439Z 22007KT 24/13 A3012 RMK A01 T02370128  RH  050%=      5-min Rain = 0
KSB1 141440Z 22008KT 24/13 A3012 RMK A01 T02370130  RH  051%=      5-min Rain = 0
KSB1 141441Z 21007KT 24/13 A3012 RMK A01 T02370129  RH  051%=      5-min Rain = 0
KSB1 141442Z 22006KT 24/13 A3012 RMK A01 T02370132  RH  052%=      5-min Rain = 0
KSB1 141443Z 21007KT 24/13 A3012 RMK A01 T02370128  RH  050%=      5-min Rain = 0
KSB1 141444Z 21007KT 24/13 A3012 RMK A01 T02370128  RH  050%=      5-min Rain = 0
KSB1 141445Z 21006KT 24/13 A3012 RMK A01 T02360130  RH  051%=      5-min Rain = 0
KSB1 141446Z 20005KT 24/13 A3013 RMK A01 T02370128  RH  050%=      5-min Rain = 0
KSB1 141447Z 21005KT 24/13 A3012 RMK A01 T02380129  RH  050%=      5-min Rain = 0
KSB1 141448Z 21006KT 24/13 A3013 RMK A01 T02400131  RH  050%=      5-min Rain = 0
KSB1 141449Z 20006KT 24/13 A3013 RMK A01 T02410132  RH  050%=      5-min Rain = 0
KSB1 141450Z 21006KT 24/13 A3013 RMK A01 T02410130  RH  050%=      5-min Rain = 0
KSB1 141451Z 20005KT 24/13 A3012 RMK A01 T02410131  RH  050%=      5-min Rain = 0
KSB1 141452Z 20005KT 24/13 A3012 RMK A01 T02410128  RH  049%=      5-min Rain = 0
KSB1 141453Z 21006KT 24/13 A3012 RMK A01 T02410128  RH  049%=      5-min Rain = 0
KSB1 141454Z 21005KT 24/13 A3013 RMK A01 T02430129  RH  049%=      5-min Rain = 0
KSB1 141455Z 21005KT 24/13 A3013 RMK A01 T02440129  RH  049%=      5-min Rain = 0
KSB1 141456Z 18004KT 25/13 A3013 RMK A01 T02450129  RH  049%=      5-min Rain = 0
KSB1 141457Z 18004KT 25/13 A3013 RMK A01 T02460131  RH  049%=      5-min Rain = 0
KSB1 141458Z 20005KT 25/13 A3013 RMK A01 T02470126  RH  047%=      5-min Rain = 0
KSB1 141459Z 20006KT 25/13 A3013 RMK A01 T02470129  RH  048%=      5-min Rain = 0
KSB1 141500Z 19006KT 25/13 A3013 RMK A01 T02470126  RH  047%=      5-min Rain = 0
KSB1 141501Z 19006KT 25/13 A3013 RMK A01 T02470127  RH  047%=      5-min Rain = 0
KSB1 141502Z 20005KT 25/13 A3013 RMK A01 T02470127  RH  047%=      5-min Rain = 0
KSB1 141503Z 20005KT 25/13 A3013 RMK A01 T02470130  RH  048%=      5-min Rain = 0
KSB1 141504Z 19005KT 25/13 A3013 RMK A01 T02480125  RH  046%=      5-min Rain = 0
KSB1 141505Z 19005KT 25/13 A3013 RMK A01 T02480126  RH  047%=      5-min Rain = 0
KSB1 141506Z 18007KT 25/13 A3013 RMK A01 T02480127  RH  047%=      5-min Rain = 0
KSB1 141507Z 18006KT 25/13 A3013 RMK A01 T02490127  RH  047%=      5-min Rain = 0
KSB1 141508Z 17005KT 25/13 A3013 RMK A01 T02510130  RH  047%=      5-min Rain = 0
KSB1 141509Z 19005KT 25/13 A3013 RMK A01 T02530128  RH  046%=      5-min Rain = 0
KSB1 141510Z 20006KT 25/13 A3013 RMK A01 T02540126  RH  045%=      5-min Rain = 0
KSB1 141511Z 20007KT 25/13 A3013 RMK A01 T02540129  RH  046%=      5-min Rain = 0
KSB1 141512Z 21007KT 26/13 A3013 RMK A01 T02580129  RH  045%=      5-min Rain = 0
KSB1 141513Z 20007KT 26/13 A3013 RMK A01 T02590129  RH  044%=      5-min Rain = 0
KSB1 141514Z 19007KT 26/13 A3013 RMK A01 T02600126  RH  044%=      5-min Rain = 0
KSB1 141515Z 19007KT 26/13 A3013 RMK A01 T02590127  RH  044%=      5-min Rain = 0
KSB1 141516Z 19009KT 26/13 A3013 RMK A01 T02590127  RH  044%=      5-min Rain = 0
KSB1 141517Z 18008KT 26/12 A3013 RMK A01 T02590122  RH  042%=      5-min Rain = 0
KSB1 141518Z 18009KT 26/12 A3013 RMK A01 T02580123  RH  043%=      5-min Rain = 0
KSB1 141519Z 18009KT 26/12 A3013 RMK A01 T02570122  RH  043%=      5-min Rain = 0
KSB1 141520Z 19009KT 26/12 A3013 RMK A01 T02570123  RH  043%=      5-min Rain = 0
KSB1 141521Z 20009KT 26/12 A3013 RMK A01 T02560123  RH  043%=      5-min Rain = 0
KSB1 141522Z 18009KT 26/12 A3013 RMK A01 T02550122  RH  043%=      5-min Rain = 0
KSB1 141523Z 18008KT 26/12 A3013 RMK A01 T02550121  RH  043%=      5-min Rain = 0
KSB1 141524Z 18010KT 26/12 A3013 RMK A01 T02560121  RH  043%=      5-min Rain = 0
KSB1 141525Z 18009KT 26/12 A3013 RMK A01 T02560122  RH  043%=      5-min Rain = 0
KSB1 141526Z 19009KT 26/12 A3013 RMK A01 T02570123  RH  043%=      5-min Rain = 0
KSB1 141527Z 19008KT 26/13 A3013 RMK A01 T02580125  RH  044%=      5-min Rain = 0
KSB1 141528Z 18007KT 26/12 A3013 RMK A01 T02580123  RH  043%=      5-min Rain = 0
KSB1 141529Z 17007KT 26/12 A3013 RMK A01 T02570121  RH  043%=      5-min Rain = 0
KSB1 141530Z 18007KT 26/12 A3013 RMK A01 T02570124  RH  043%=      5-min Rain = 0
KSB1 141531Z 18009KT 26/13 A3013 RMK A01 T02570128  RH  045%=      5-min Rain = 0
KSB1 141532Z 16011KT 26/13 A3013 RMK A01 T02580129  RH  045%=      5-min Rain = 0
KSB1 141533Z 18007KT 26/13 A3013 RMK A01 T02580127  RH  044%=      5-min Rain = 0
KSB1 141534Z 17008KT 26/12 A3013 RMK A01 T02570124  RH  043%=      5-min Rain = 0
KSB1 141535Z 17009KT 26/13 A3013 RMK A01 T02550128  RH  045%=      5-min Rain = 0
KSB1 141536Z 18006KT 25/13 A3012 RMK A01 T02540127  RH  045%=      5-min Rain = 0
KSB1 141537Z 19006KT 25/12 A3012 RMK A01 T02530123  RH  044%=      5-min Rain = 0
KSB1 141538Z 18006KT 25/13 A3012 RMK A01 T02520128  RH  046%=      5-min Rain = 0
KSB1 141539Z 18009KT 25/13 A3012 RMK A01 T02530127  RH  046%=      5-min Rain = 0
KSB1 141540Z 19009KT 25/12 A3012 RMK A01 T02540122  RH  044%=      5-min Rain = 0
KSB1 141541Z 19006KT 25/12 A3012 RMK A01 T02540121  RH  043%=      5-min Rain = 0
KSB1 141542Z 17007KT 25/12 A3012 RMK A01 T02540121  RH  043%=      5-min Rain = 0
KSB1 141543Z 17006KT 25/13 A3012 RMK A01 T02540126  RH  045%=      5-min Rain = 0
KSB1 141544Z 19006KT 26/12 A3012 RMK A01 T02550123  RH  044%=      5-min Rain = 0
KSB1 141545Z 16008KT 26/13 A3012 RMK A01 T02570125  RH  044%=      5-min Rain = 0
KSB1 141546Z 16008KT 26/13 A3012 RMK A01 T02590126  RH  044%=      5-min Rain = 0
KSB1 141547Z 16009KT 26/13 A3012 RMK A01 T02600125  RH  043%=      5-min Rain = 0
KSB1 141548Z 18009KT 26/13 A3012 RMK A01 T02600126  RH  044%=      5-min Rain = 0
KSB1 141549Z 17009KT 26/13 A3012 RMK A01 T02600127  RH  043%=      5-min Rain = 0
KSB1 141550Z 18007KT 26/13 A3012 RMK A01 T02600128  RH  044%=      5-min Rain = 0
KSB1 141551Z 20007KT 26/12 A3012 RMK A01 T02620120  RH  041%=      5-min Rain = 0
KSB1 141552Z 21006KT 26/12 A3012 RMK A01 T02610121  RH  042%=      5-min Rain = 0
KSB1 141553Z 18007KT 26/13 A3012 RMK A01 T02630125  RH  042%=      5-min Rain = 0
KSB1 141554Z 17010KT 27/13 A3012 RMK A01 T02660129  RH  042%=      5-min Rain = 0
KSB1 141555Z 17012KT 27/13 A3012 RMK A01 T02660126  RH  042%=      5-min Rain = 0
KSB1 141556Z 19010KT 27/13 A3012 RMK A01 T02660126  RH  042%=      5-min Rain = 0
KSB1 141557Z 16009KT 27/13 A3012 RMK A01 T02650126  RH  042%=      5-min Rain = 0
KSB1 141558Z 16010KT 26/13 A3012 RMK A01 T02640126  RH  042%=      5-min Rain = 0
KSB1 141559Z 16009KT 27/12 A3012 RMK A01 T02650124  RH  042%=      5-min Rain = 0
KSB1 141600Z 16010KT 27/12 A3012 RMK A01 T02650124  RH  041%=      5-min Rain = 0
KSB1 141601Z 20009KT 27/12 A3012 RMK A01 T02670124  RH  041%=      5-min Rain = 0
KSB1 141602Z 20008KT 27/12 A3012 RMK A01 T02680122  RH  040%=      5-min Rain = 0
KSB1 141603Z 20007KT 27/12 A3012 RMK A01 T02680121  RH  040%=      5-min Rain = 0
KSB1 141604Z 18008KT 27/12 A3012 RMK A01 T02680119  RH  039%=      5-min Rain = 0
KSB1 141605Z 18010KT 27/12 A3012 RMK A01 T02690119  RH  039%=      5-min Rain = 0
KSB1 141606Z 20007KT 27/12 A3012 RMK A01 T02680121  RH  040%=      5-min Rain = 0
KSB1 141607Z 20007KT 27/12 A3012 RMK A01 T02670122  RH  041%=      5-min Rain = 0
KSB1 141608Z 20009KT 27/13 A3012 RMK A01 T02680127  RH  042%=      5-min Rain = 0
KSB1 141609Z 20009KT 27/13 A3012 RMK A01 T02690125  RH  041%=      5-min Rain = 0
KSB1 141610Z 19008KT 27/12 A3012 RMK A01 T02680123  RH  041%=      5-min Rain = 0
KSB1 141611Z 18005KT 27/12 A3012 RMK A01 T02650121  RH  041%=      5-min Rain = 0
KSB1 141612Z 18007KT 27/12 A3012 RMK A01 T02650124  RH  042%=      5-min Rain = 0
KSB1 141613Z 18004KT 27/13 A3012 RMK A01 T02650126  RH  042%=      5-min Rain = 0
KSB1 141614Z 19008KT 27/13 A3012 RMK A01 T02660129  RH  043%=      5-min Rain = 0
KSB1 141615Z 19010KT 27/13 A3012 RMK A01 T02670125  RH  041%=      5-min Rain = 0
KSB1 141616Z 19006KT 27/12 A3012 RMK A01 T02650124  RH  042%=      5-min Rain = 0
KSB1 141617Z 20006KT 26/13 A3012 RMK A01 T02640126  RH  042%=      5-min Rain = 0
KSB1 141618Z 20005KT 26/12 A3012 RMK A01 T02640124  RH  042%=      5-min Rain = 0
KSB1 141619Z 20006KT 27/13 A3012 RMK A01 T02650127  RH  043%=      5-min Rain = 0
KSB1 141620Z 20010KT 27/13 A3012 RMK A01 T02680131  RH  043%=      5-min Rain = 0
KSB1 141621Z 20010KT 27/13 A3012 RMK A01 T02690129  RH  042%=      5-min Rain = 0
KSB1 141622Z 20012KT 27/13 A3012 RMK A01 T02680127  RH  041%=      5-min Rain = 0
KSB1 141623Z 20010KT 27/13 A3012 RMK A01 T02670128  RH  042%=      5-min Rain = 0
KSB1 141624Z 20009KT 27/13 A3012 RMK A01 T02680126  RH  041%=      5-min Rain = 0
KSB1 141625Z 19009KT 27/13 A3012 RMK A01 T02680127  RH  042%=      5-min Rain = 0
KSB1 141626Z 20010KT 27/13 A3012 RMK A01 T02690127  RH  042%=      5-min Rain = 0
KSB1 141627Z 19009KT 27/13 A3012 RMK A01 T02690128  RH  042%=      5-min Rain = 0
KSB1 141628Z 18008KT 27/13 A3012 RMK A01 T02730130  RH  041%=      5-min Rain = 0
KSB1 141629Z 19009KT 28/13 A3012 RMK A01 T02770131  RH  040%=      5-min Rain = 0
KSB1 141630Z 19008KT 28/12 A3012 RMK A01 T02750124  RH  039%=      5-min Rain = 0
KSB1 141631Z 20007KT 27/13 A3012 RMK A01 T02710125  RH  040%=      5-min Rain = 0
KSB1 141632Z 17008KT 27/13 A3012 RMK A01 T02700128  RH  041%=      5-min Rain = 0
KSB1 141633Z 19009KT 27/13 A3012 RMK A01 T02710129  RH  041%=      5-min Rain = 0
KSB1 141634Z 19010KT 27/13 A3012 RMK A01 T02730129  RH  041%=      5-min Rain = 0
KSB1 141635Z 17010KT 27/13 A3012 RMK A01 T02740125  RH  040%=      5-min Rain = 0
KSB1 141636Z 16008KT 28/13 A3012 RMK A01 T02750126  RH  040%=      5-min Rain = 0
KSB1 141637Z 17006KT 28/12 A3012 RMK A01 T02760124  RH  039%=      5-min Rain = 0
KSB1 141638Z 20008KT 28/12 A3012 RMK A01 T02760124  RH  039%=      5-min Rain = 0
KSB1 141639Z 19008KT 28/12 A3011 RMK A01 T02760124  RH  039%=      5-min Rain = 0
KSB1 141640Z 19009KT 28/13 A3012 RMK A01 T02770128  RH  040%=      5-min Rain = 0
KSB1 141641Z 17007KT 28/13 A3011 RMK A01 T02780125  RH  039%=      5-min Rain = 0
KSB1 141642Z 18007KT 28/12 A3011 RMK A01 T02790124  RH  038%=      5-min Rain = 0
KSB1 141643Z 18007KT 28/13 A3011 RMK A01 T02790126  RH  039%=      5-min Rain = 0
KSB1 141644Z 17007KT 28/13 A3011 RMK A01 T02810125  RH  038%=      5-min Rain = 0
KSB1 141645Z 19009KT 28/12 A3011 RMK A01 T02800124  RH  038%=      5-min Rain = 0
KSB1 141646Z 18007KT 28/13 A3011 RMK A01 T02790125  RH  039%=      5-min Rain = 0
KSB1 141647Z 19010KT 28/13 A3011 RMK A01 T02790125  RH  039%=      5-min Rain = 0
KSB1 141648Z 20010KT 28/12 A3011 RMK A01 T02800124  RH  038%=      5-min Rain = 0
KSB1 141649Z 19009KT 28/12 A3011 RMK A01 T02790124  RH  038%=      5-min Rain = 0
KSB1 141650Z 19009KT 28/12 A3011 RMK A01 T02790121  RH  038%=      5-min Rain = 0
KSB1 141651Z 20007KT 28/12 A3011 RMK A01 T02770121  RH  038%=      5-min Rain = 0
KSB1 141652Z 17008KT 28/12 A3011 RMK A01 T02780124  RH  039%=      5-min Rain = 0
KSB1 141653Z 17009KT 28/12 A3011 RMK A01 T02790123  RH  038%=      5-min Rain = 0
KSB1 141654Z 19010KT 28/12 A3011 RMK A01 T02790124  RH  038%=      5-min Rain = 0
KSB1 141655Z 18010KT 28/12 A3011 RMK A01 T02790124  RH  038%=      5-min Rain = 0
KSB1 141656Z 19010KT 28/12 A3011 RMK A01 T02810123  RH  038%=      5-min Rain = 0
KSB1 141657Z 18010KT 28/12 A3011 RMK A01 T02830123  RH  037%=      5-min Rain = 0
KSB1 141658Z 18009KT 28/12 A3011 RMK A01 T02840119  RH  036%=      5-min Rain = 0
KSB1 141659Z 19007KT 28/12 A3011 RMK A01 T02840117  RH  035%=      5-min Rain = 0
KSB1 141700Z 19008KT 29/12 A3011 RMK A01 T02850123  RH  037%=      5-min Rain = 0
KSB1 141701Z 20008KT 29/12 A3011 RMK A01 T02850120  RH  036%=      5-min Rain = 0
KSB1 141702Z 21008KT 28/12 A3011 RMK A01 T02840121  RH  036%=      5-min Rain = 0
KSB1 141703Z 19008KT 28/12 A3011 RMK A01 T02840122  RH  037%=      5-min Rain = 0
KSB1 141704Z 20007KT 29/12 A3011 RMK A01 T02850121  RH  036%=      5-min Rain = 0
KSB1 141705Z 19007KT 29/12 A3011 RMK A01 T02880121  RH  036%=      5-min Rain = 0
KSB1 141706Z 22012KT 29/12 A3011 RMK A01 T02890119  RH  035%=      5-min Rain = 0
KSB1 141707Z 20012KT 29/12 A3011 RMK A01 T02890119  RH  035%=      5-min Rain = 0
KSB1 141708Z 19010KT 29/12 A3011 RMK A01 T02880117  RH  035%=      5-min Rain = 0
KSB1 141709Z 20012KT 29/11 A3011 RMK A01 T02880114  RH  034%=      5-min Rain = 0
KSB1 141710Z 20011KT 29/11 A3011 RMK A01 T02870114  RH  034%=      5-min Rain = 0
KSB1 141711Z 22010KT 29/12 A3011 RMK A01 T02870115  RH  034%=      5-min Rain = 0
KSB1 141712Z 20011KT 29/11 A3011 RMK A01 T02880114  RH  034%=      5-min Rain = 0
KSB1 141713Z 22008KT 29/11 A3011 RMK A01 T02910112  RH  033%=      5-min Rain = 0
KSB1 141714Z 24008KT 29/11 A3011 RMK A01 T02920111  RH  033%=      5-min Rain = 0
KSB1 141715Z 23013KT 29/10 A3011 RMK A01 T02930104  RH  031%=      5-min Rain = 0
KSB1 141716Z 22011KT 29/10 A3011 RMK A01 T02920099  RH  030%=      5-min Rain = 0
KSB1 141717Z 22012KT 29/10 A3011 RMK A01 T02910100  RH  030%=      5-min Rain = 0
KSB1 141718Z 22011KT 29/10 A3011 RMK A01 T02920103  RH  031%=      5-min Rain = 0
KSB1 141719Z 22011KT 29/10 A3011 RMK A01 T02930101  RH  030%=      5-min Rain = 0
KSB1 141720Z 21012KT 29/10 A301 RMK A01 T02930103  RH  031%=      5-min Rain = 0
KSB1 141721Z 22013KT 30/10 A3011 RMK A01 T02950103  RH  030%=      5-min Rain = 0
KSB1 141722Z 21011KT 30/10 A3011 RMK A01 T02960104  RH  030%=      5-min Rain = 0
KSB1 141723Z 21011KT 30/10 A3011 RMK A01 T02970104  RH  030%=      5-min Rain = 0
KSB1 141724Z 20012KT 30/10 A3011 RMK A01 T02970101  RH  030%=      5-min Rain = 0
KSB1 141725Z 23010KT 30/10 A3011 RMK A01 T02960100  RH  030%=      5-min Rain = 0
KSB1 141726Z 22009KT 30/10 A3011 RMK A01 T02960102  RH  030%=      5-min Rain = 0
KSB1 141727Z 21010KT 30/10 A3011 RMK A01 T02970099  RH  029%=      5-min Rain = 0
KSB1 141728Z 20012KT 30/10 A3011 RMK A01 T02970102  RH  030%=      5-min Rain = 0
KSB1 141729Z 22011KT 30/10 A3011 RMK A01 T02990102  RH  030%=      5-min Rain = 0
KSB1 141730Z 22010KT 30/10 A3011 RMK A01 T03000099  RH  029%=      5-min Rain = 0
KSB1 141731Z 23009KT 30/10 A301 RMK A01 T03000101  RH  029%=      5-min Rain = 0
KSB1 141732Z 24011KT 30/10 A301 RMK A01 T03020101  RH  029%=      5-min Rain = 0
KSB1 141733Z 25011G16KT 30/09 A301 RMK A01 T03020092  RH  027%=      5-min Rain = 0
KSB1 141734Z 25013KT 30/09 A301 RMK A01 T03020086  RH  026%=      5-min Rain = 0
KSB1 141735Z 26011KT 30/08 A301 RMK A01 T03030081  RH  025%=      5-min Rain = 0
KSB1 141736Z 26013KT 31/08 A301 RMK A01 T03050083  RH  025%=      5-min Rain = 0
KSB1 141737Z 25012KT 31/08 A301 RMK A01 T03070077  RH  024%=      5-min Rain = 0
KSB1 141738Z 25011KT 31/08 A301 RMK A01 T03060075  RH  024%=      5-min Rain = 0
KSB1 141739Z 27009KT 31/08 A301 RMK A01 T03060076  RH  024%=      5-min Rain = 0
KSB1 141740Z 26009KT 31/07 A301 RMK A01 T03090071  RH  023%=      5-min Rain = 0
KSB1 141741Z 26009KT 31/08 A301 RMK A01 T03090076  RH  023%=      5-min Rain = 0
KSB1 141742Z 27008KT 31/08 A301 RMK A01 T03090079  RH  024%=      5-min Rain = 0
KSB1 141743Z 28009G14KT 31/08 A301 RMK A01 T03080079  RH  024%=      5-min Rain = 0
KSB1 141744Z 27015KT 31/08 A301 RMK A01 T03100081  RH  024%=      5-min Rain = 0
KSB1 141745Z 26013KT 31/08 A301 RMK A01 T03110081  RH  024%=      5-min Rain = 0
KSB1 141746Z 24010KT 31/08 A301 RMK A01 T03080081  RH  024%=      5-min Rain = 0
KSB1 141747Z 23007KT 31/08 A301 RMK A01 T03070080  RH  024%=      5-min Rain = 0
KSB1 141748Z 26005KT 31/08 A301 RMK A01 T03060079  RH  024%=      5-min Rain = 0
KSB1 141749Z 26008KT 31/08 A301 RMK A01 T03060078  RH  024%=      5-min Rain = 0
KSB1 141750Z 25006KT 31/08 A301 RMK A01 T03070078  RH  024%=      5-min Rain = 0
KSB1 141751Z 27007KT 31/08 A301 RMK A01 T03090079  RH  024%=      5-min Rain = 0
KSB1 141752Z 24007KT 31/08 A3009 RMK A01 T03110083  RH  024%=      5-min Rain = 0
KSB1 141753Z 25007KT 31/08 A3009 RMK A01 T03140079  RH  023%=      5-min Rain = 0
KSB1 141754Z 26005KT 31/07 A3009 RMK A01 T03110072  RH  022%=      5-min Rain = 0
KSB1 141755Z 27009G17KT 31/08 A3009 RMK A01 T03110076  RH  023%=      5-min Rain = 0
KSB1 141756Z 27011G16KT 31/08 A3009 RMK A01 T03130075  RH  023%=      5-min Rain = 0
KSB1 141757Z 26008KT 31/07 A3009 RMK A01 T03140074  RH  023%=      5-min Rain = 0
KSB1 141758Z 25010KT 32/08 A3009 RMK A01 T03160080  RH  023%=      5-min Rain = 0
KSB1 141759Z 25010G17KT 32/08 A3009 RMK A01 T03180076  RH  022%=      5-min Rain = 0
KSB1 141800Z 27012KT 32/08 A3009 RMK A01 T03160075  RH  022%=      5-min Rain = 0
KSB1 141801Z 27009KT 31/07 A3009 RMK A01 T03130073  RH  022%=      5-min Rain = 0
KSB1 141802Z 28013KT 31/08 A3009 RMK A01 T03140080  RH  023%=      5-min Rain = 0
KSB1 141803Z 28015KT 32/08 A3009 RMK A01 T03160076  RH  023%=      5-min Rain = 0
KSB1 141804Z 29012KT 32/08 A3009 RMK A01 T03170076  RH  022%=      5-min Rain = 0
KSB1 141805Z 29009KT 32/08 A3009 RMK A01 T03150078  RH  023%=      5-min Rain = 0
KSB1 141806Z 28011KT 31/08 A3009 RMK A01 T03140083  RH  024%=      5-min Rain = 0
KSB1 141807Z 28011KT 31/08 A3009 RMK A01 T03130082  RH  024%=      5-min Rain = 0
KSB1 141808Z 26011KT 31/08 A3009 RMK A01 T03140083  RH  024%=      5-min Rain = 0
KSB1 141809Z 24011KT 32/09 A3009 RMK A01 T03160090  RH  025%=      5-min Rain = 0
KSB1 141810Z 26012KT 32/09 A3009 RMK A01 T03180088  RH  024%=      5-min Rain = 0
KSB1 141811Z 25012KT 32/08 A3009 RMK A01 T03220081  RH  023%=      5-min Rain = 0
KSB1 141812Z 27012KT 32/08 A3009 RMK A01 T03190081  RH  023%=      5-min Rain = 0
KSB1 141813Z 27014KT 32/08 A3009 RMK A01 T03190083  RH  023%=      5-min Rain = 0
KSB1 141814Z 26011KT 32/08 A3009 RMK A01 T03190083  RH  023%=      5-min Rain = 0
KSB1 141815Z 26009KT 32/09 A3009 RMK A01 T03170085  RH  024%=      5-min Rain = 0
KSB1 141816Z 26007KT 32/08 A3009 RMK A01 T03180083  RH  023%=      5-min Rain = 0
KSB1 141817Z 29006KT 32/08 A3008 RMK A01 T03160084  RH  024%=      5-min Rain = 0
KSB1 141818Z 25010KT 32/08 A3008 RMK A01 T03180084  RH  023%=      5-min Rain = 0
KSB1 141819Z 25015KT 32/08 A3008 RMK A01 T03220081  RH  022%=      5-min Rain = 0
KSB1 141820Z 24012KT 32/07 A3008 RMK A01 T03240072  RH  021%=      5-min Rain = 0
KSB1 141821Z 24012KT 32/07 A3008 RMK A01 T03230071  RH  021%=      5-min Rain = 0
KSB1 141822Z 24011KT 32/07 A3008 RMK A01 T03200074  RH  022%=      5-min Rain = 0
KSB1 141823Z 24011KT 32/08 A3008 RMK A01 T03200078  RH  022%=      5-min Rain = 0
KSB1 141824Z 23014KT 33/07 A3008 RMK A01 T03260074  RH  021%=      5-min Rain = 0
KSB1 141825Z 22016KT 33/07 A3008 RMK A01 T03280068  RH  020%=      5-min Rain = 0
KSB1 141826Z 23013G19KT 33/07 A3008 RMK A01 T03270073  RH  021%=      5-min Rain = 0
KSB1 141827Z 24013G18KT 33/07 A3008 RMK A01 T03260074  RH  021%=      5-min Rain = 0
KSB1 141828Z 24016KT 33/08 A3008 RMK A01 T03250077  RH  022%=      5-min Rain = 0
KSB1 141829Z 25015KT 32/08 A3008 RMK A01 T03240084  RH  023%=      5-min Rain = 0
KSB1 141830Z 24013KT 32/09 A3008 RMK A01 T03230087  RH  023%=      5-min Rain = 0
KSB1 141831Z 24012KT 32/09 A3008 RMK A01 T03220087  RH  023%=      5-min Rain = 0
KSB1 141832Z 22011KT 32/08 A3008 RMK A01 T03190083  RH  023%=      5-min Rain = 0
KSB1 141833Z 24010KT 32/08 A3008 RMK A01 T03170083  RH  023%=      5-min Rain = 0
KSB1 141834Z 28010KT 32/08 A3008 RMK A01 T03170083  RH  023%=      5-min Rain = 0
KSB1 141835Z 29009KT 32/08 A3008 RMK A01 T03190084  RH  023%=      5-min Rain = 0
KSB1 141836Z 28011KT 32/08 A3008 RMK A01 T03230076  RH  022%=      5-min Rain = 0
KSB1 141837Z 28011KT 32/08 A3008 RMK A01 T03230079  RH  022%=      5-min Rain = 0
KSB1 141838Z 27012KT 33/08 A3008 RMK A01 T03250081  RH  022%=      5-min Rain = 0
KSB1 141839Z 27009KT 33/08 A3008 RMK A01 T03250079  RH  022%=      5-min Rain = 0
KSB1 141840Z 29009KT 32/08 A3007 RMK A01 T03230077  RH  022%=      5-min Rain = 0
KSB1 141841Z 30008KT 32/08 A3007 RMK A01 T03230078  RH  022%=      5-min Rain = 0
KSB1 141842Z 26008KT 33/08 A3007 RMK A01 T03250084  RH  023%=      5-min Rain = 0
KSB1 141843Z 24006KT 33/08 A3007 RMK A01 T03270082  RH  022%=      5-min Rain = 0
KSB1 141844Z 25005KT 32/09 A3007 RMK A01 T03240086  RH  023%=      5-min Rain = 0
KSB1 141845Z 27010G19KT 33/08 A3007 RMK A01 T03270084  RH  022%=      5-min Rain = 0
KSB1 141846Z 27015KT 33/07 A3007 RMK A01 T03270065  RH  020%=      5-min Rain = 0
KSB1 141847Z 27015KT 33/06 A3007 RMK A01 T03260062  RH  019%=      5-min Rain = 0
KSB1 141848Z 28013KT 33/06 A3007 RMK A01 T03260055  RH  018%=      5-min Rain = 0
KSB1 141849Z 27008KT 32/06 A3007 RMK A01 T03240057  RH  019%=      5-min Rain = 0
KSB1 141850Z 26007KT 33/06 A3007 RMK A01 T03260064  RH  020%=      5-min Rain = 0
KSB1 141851Z 27011KT 33/07 A3007 RMK A01 T03320072  RH  020%=      5-min Rain = 0
KSB1 141852Z 28010KT 34/06 A3007 RMK A01 T03350061  RH  018%=      5-min Rain = 0
KSB1 141853Z 28012KT 33/06 A3007 RMK A01 T03290063  RH  019%=      5-min Rain = 0
KSB1 141854Z 28013KT 33/07 A3007 RMK A01 T03280068  RH  020%=      5-min Rain = 0
KSB1 141855Z 26009G14KT 33/07 A3007 RMK A01 T03300070  RH  020%=      5-min Rain = 0
KSB1 141856Z 28008G14KT 33/07 A3007 RMK A01 T03300069  RH  020%=      5-min Rain = 0
KSB1 141857Z 29013KT 33/07 A3007 RMK A01 T03300073  RH  020%=      5-min Rain = 0
KSB1 141858Z 28013KT 33/07 A3007 RMK A01 T03300072  RH  020%=      5-min Rain = 0
KSB1 141859Z 28013KT 33/07 A3007 RMK A01 T03300071  RH  020%=      5-min Rain = 0
KSB1 141900Z 27011KT 33/07 A3007 RMK A01 T03300070  RH  020%=      5-min Rain = 0
KSB1 141901Z 26010KT 33/07 A3007 RMK A01 T03320071  RH  020%=      5-min Rain = 0
KSB1 141902Z 27010KT 33/07 A3006 RMK A01 T03300071  RH  020%=      5-min Rain = 0
KSB1 141903Z 27011KT 33/07 A3006 RMK A01 T03290073  RH  020%=      5-min Rain = 0
KSB1 141904Z 28016KT 33/07 A3006 RMK A01 T03310073  RH  020%=      5-min Rain = 0
KSB1 141905Z 27013KT 33/07 A3006 RMK A01 T03320073  RH  020%=      5-min Rain = 0
KSB1 141906Z 26014KT 33/07 A3006 RMK A01 T03310068  RH  020%=      5-min Rain = 0
KSB1 141907Z 26014KT 33/06 A3006 RMK A01 T03290064  RH  019%=      5-min Rain = 0
KSB1 141908Z 26015KT 33/06 A3006 RMK A01 T03290062  RH  019%=      5-min Rain = 0
KSB1 141909Z 25012KT 33/06 A3006 RMK A01 T03270061  RH  019%=      5-min Rain = 0
KSB1 141910Z 28006KT 32/06 A3006 RMK A01 T03220055  RH  019%=      5-min Rain = 0
KSB1 141911Z 30005KT 32/06 A3006 RMK A01 T03210056  RH  019%=      5-min Rain = 0
KSB1 141912Z 25004KT 32/06 A3006 RMK A01 T03190057  RH  019%=      5-min Rain = 0
KSB1 141913Z 24009G14KT 32/06 A3006 RMK A01 T03170058  RH  020%=      5-min Rain = 0
KSB1 141914Z 24010KT 32/06 A3006 RMK A01 T03190064  RH  020%=      5-min Rain = 0
KSB1 141915Z 27009KT 32/06 A3006 RMK A01 T03200061  RH  020%=      5-min Rain = 0
KSB1 141916Z 27006KT 32/06 A3006 RMK A01 T03220063  RH  020%=      5-min Rain = 0
KSB1 141917Z 26004KT 32/07 A3006 RMK A01 T03240065  RH  020%=      5-min Rain = 0
KSB1 141918Z 26006KT 33/07 A3006 RMK A01 T03250065  RH  020%=      5-min Rain = 0
KSB1 141919Z 27013KT 33/07 A3006 RMK A01 T03280065  RH  019%=      5-min Rain = 0
KSB1 141920Z 29015KT 33/05 A3005 RMK A01 T03320053  RH  018%=      5-min Rain = 0
KSB1 141921Z 29013KT 33/05 A3005 RMK A01 T03320051  RH  017%=      5-min Rain = 0
KSB1 141922Z 29010KT 33/05 A3005 RMK A01 T03310053  RH  018%=      5-min Rain = 0
KSB1 141923Z 27010KT 33/06 A3005 RMK A01 T03320056  RH  018%=      5-min Rain = 0
KSB1 141924Z 28011KT 34/06 A3005 RMK A01 T03370055  RH  017%=      5-min Rain = 0
KSB1 141925Z 28012KT 34/06 A3005 RMK A01 T03390056  RH  017%=      5-min Rain = 0
KSB1 141926Z 28011KT 34/06 A3005 RMK A01 T03360056  RH  017%=      5-min Rain = 0
KSB1 141927Z 28012G17KT 34/06 A3005 RMK A01 T03370058  RH  018%=      5-min Rain = 0
KSB1 141928Z 29014KT 34/06 A3005 RMK A01 T03390057  RH  017%=      5-min Rain = 0
KSB1 141929Z 29017KT 34/06 A3005 RMK A01 T03390058  RH  017%=      5-min Rain = 0
KSB1 141930Z 28015KT 34/06 A3005 RMK A01 T03360056  RH  018%=      5-min Rain = 0
KSB1 141931Z 27008KT 33/06 A3005 RMK A01 T03320056  RH  018%=      5-min Rain = 0
KSB1 141932Z 28007G12KT 33/06 A3005 RMK A01 T03310057  RH  018%=      5-min Rain = 0
KSB1 141933Z 28010KT 33/06 A3005 RMK A01 T03320057  RH  018%=      5-min Rain = 0
KSB1 141934Z 28012KT 33/06 A3005 RMK A01 T03320059  RH  018%=      5-min Rain = 0
KSB1 141935Z 24014G19KT 33/06 A3005 RMK A01 T03310061  RH  019%=      5-min Rain = 0
KSB1 141936Z 23012KT 33/06 A3005 RMK A01 T03310063  RH  019%=      5-min Rain = 0
KSB1 141937Z 22009G14KT 33/06 A3005 RMK A01 T03330064  RH  019%=      5-min Rain = 0
KSB1 141938Z 25005KT 33/06 A3005 RMK A01 T03330062  RH  019%=      5-min Rain = 0
KSB1 141939Z 26011G19KT 34/07 A3005 RMK A01 T03350069  RH  019%=      5-min Rain = 0
KSB1 141940Z 26013G19KT 34/07 A3005 RMK A01 T03400068  RH  019%=      5-min Rain = 0
KSB1 141941Z 26013KT 34/07 A3005 RMK A01 T03370065  RH  019%=      5-min Rain = 0
KSB1 141942Z 28014KT 34/07 A3005 RMK A01 T03360066  RH  019%=      5-min Rain = 0
KSB1 141943Z 29009KT 33/07 A3004 RMK A01 T03340066  RH  019%=      5-min Rain = 0
KSB1 141944Z 29009G14KT 33/07 A3004 RMK A01 T03340068  RH  019%=      5-min Rain = 0
KSB1 141945Z 29012KT 34/07 A3004 RMK A01 T03370067  RH  019%=      5-min Rain = 0
KSB1 141946Z 30011KT 34/06 A3004 RMK A01 T03370062  RH  018%=      5-min Rain = 0
KSB1 141947Z 25010G15KT 33/06 A3004 RMK A01 T03340063  RH  019%=      5-min Rain = 0
KSB1 141948Z 23013KT 33/08 A3004 RMK A01 T03340075  RH  020%=      5-min Rain = 0
KSB1 141949Z 23012KT 34/07 A3004 RMK A01 T03350073  RH  020%=      5-min Rain = 0
KSB1 141950Z 24010KT 33/07 A3004 RMK A01 T03310071  RH  020%=      5-min Rain = 0
KSB1 141951Z 24011KT 33/07 A3004 RMK A01 T03310072  RH  020%=      5-min Rain = 0
KSB1 141952Z 23012KT 34/07 A3004 RMK A01 T03350071  RH  020%=      5-min Rain = 0
KSB1 141953Z 23010KT 34/07 A3004 RMK A01 T03350072  RH  020%=      5-min Rain = 0
KSB1 141954Z 24010KT 34/07 A3004 RMK A01 T03350072  RH  020%=      5-min Rain = 0
KSB1 141955Z 25009KT 33/07 A3004 RMK A01 T03340072  RH  020%=      5-min Rain = 0
KSB1 141956Z 24011KT 33/07 A3004 RMK A01 T03330072  RH  020%=      5-min Rain = 0
KSB1 141957Z 23009KT 33/07 A3004 RMK A01 T03310071  RH  020%=      5-min Rain = 0
KSB1 141958Z 25008KT 33/07 A3004 RMK A01 T03290071  RH  020%=      5-min Rain = 0
KSB1 141959Z 31010KT 33/07 A3004 RMK A01 T03290069  RH  020%=      5-min Rain = 0
KSB1 142000Z 33008G13KT 33/07 A3004 RMK A01 T03280068  RH  020%=      5-min Rain = 0
KSB1 142001Z 34005KT 33/07 A3004 RMK A01 T03250068  RH  020%=      5-min Rain = 0
KSB1 142002Z 31005KT 33/07 A3004 RMK A01 T03270069  RH  020%=      5-min Rain = 0
KSB1 142003Z 30006KT 33/07 A3004 RMK A01 T03300069  RH  020%=      5-min Rain = 0
KSB1 142004Z 29007KT 33/07 A3004 RMK A01 T03300067  RH  020%=      5-min Rain = 0
KSB1 142005Z 28008KT 33/07 A3004 RMK A01 T03300067  RH  019%=      5-min Rain = 0
KSB1 142006Z 25009KT 33/07 A3004 RMK A01 T03330071  RH  020%=      5-min Rain = 0
KSB1 142007Z 25008KT 33/07 A3004 RMK A01 T03330067  RH  019%=      5-min Rain = 0
KSB1 142008Z 27010G16KT 33/07 A3004 RMK A01 T03310066  RH  019%=      5-min Rain = 0
KSB1 142009Z 24010KT 33/07 A3004 RMK A01 T03330067  RH  019%=      5-min Rain = 0
KSB1 142010Z 23010KT 34/07 A3004 RMK A01 T03350070  RH  019%=      5-min Rain = 0
KSB1 142011Z 22010KT 34/07 A3004 RMK A01 T03360066  RH  019%=      5-min Rain = 0
KSB1 142012Z 23008KT 34/07 A3003 RMK A01 T03350065  RH  019%=      5-min Rain = 0
KSB1 142013Z 22011KT 34/06 A3003 RMK A01 T03360064  RH  018%=      5-min Rain = 0
KSB1 142014Z 22011G16KT 34/06 A3003 RMK A01 T03370060  RH  018%=      5-min Rain = 0
KSB1 142015Z 22012KT 34/06 A3003 RMK A01 T03370062  RH  018%=      5-min Rain = 0
KSB1 142016Z 21012G17KT 34/06 A3003 RMK A01 T03370064  RH  018%=      5-min Rain = 0
KSB1 142017Z 21012KT 34/06 A3003 RMK A01 T03380061  RH  018%=      5-min Rain = 0
KSB1 142018Z 21012KT 34/06 A3003 RMK A01 T03360059  RH  018%=      5-min Rain = 0
KSB1 142019Z 23012KT 33/06 A3003 RMK A01 T03330059  RH  018%=      5-min Rain = 0
KSB1 142020Z 27013KT 33/06 A3003 RMK A01 T03320057  RH  018%=      5-min Rain = 0
KSB1 142021Z 27010KT 33/06 A3003 RMK A01 T03310056  RH  018%=      5-min Rain = 0
KSB1 142022Z 23013G18KT 33/06 A3003 RMK A01 T03310055  RH  018%=      5-min Rain = 0
KSB1 142023Z 24014KT 34/06 A3003 RMK A01 T03370057  RH  017%=      5-min Rain = 0
KSB1 142024Z 23017G24KT 34/05 A3003 RMK A01 T03420054  RH  017%=      5-min Rain = 0
KSB1 142025Z 26015G22KT 34/05 A3003 RMK A01 T03410054  RH  017%=      5-min Rain = 0
KSB1 142026Z 25009G14KT 35/06 A3003 RMK A01 T03460057  RH  017%=      5-min Rain = 0
KSB1 142027Z 22014KT 35/06 A3003 RMK A01 T03480056  RH  016%=      5-min Rain = 0
KSB1 142028Z 23012KT 35/06 A3003 RMK A01 T03480056  RH  016%=      5-min Rain = 0
KSB1 142029Z 23011KT 35/06 A3003 RMK A01 T03510056  RH  016%=      5-min Rain = 0
KSB1 142030Z 25009KT 35/05 A3003 RMK A01 T03470052  RH  016%=      5-min Rain = 0
KSB1 142031Z 26012KT 34/05 A3003 RMK A01 T03420051  RH  016%=      5-min Rain = 0
KSB1 142032Z 24018KT 34/05 A3003 RMK A01 T03410049  RH  016%=      5-min Rain = 0
KSB1 142033Z 23018KT 34/05 A3003 RMK A01 T03440047  RH  016%=      5-min Rain = 0
KSB1 142034Z 23015KT 34/05 A3003 RMK A01 T03420045  RH  016%=      5-min Rain = 0
KSB1 142035Z 26015KT 34/05 A3003 RMK A01 T03400047  RH  016%=      5-min Rain = 0
KSB1 142036Z 25013KT 34/05 A3003 RMK A01 T03380045  RH  016%=      5-min Rain = 0
KSB1 142037Z 23012KT 34/05 A3003 RMK A01 T03390048  RH  016%=      5-min Rain = 0
KSB1 142038Z 22012KT 34/05 A3003 RMK A01 T03390047  RH  016%=      5-min Rain = 0
KSB1 142039Z 24011KT 34/05 A3003 RMK A01 T03380047  RH  016%=      5-min Rain = 0
KSB1 142040Z 24012KT 34/05 A3003 RMK A01 T03370047  RH  016%=      5-min Rain = 0
KSB1 142041Z 24014KT 34/05 A3002 RMK A01 T03390046  RH  016%=      5-min Rain = 0
KSB1 142042Z 22014KT 34/05 A3002 RMK A01 T03380046  RH  016%=      5-min Rain = 0
KSB1 142043Z 23014KT 34/05 A3002 RMK A01 T03350045  RH  016%=      5-min Rain = 0
KSB1 142044Z 23014G19KT 33/05 A3002 RMK A01 T03330046  RH  017%=      5-min Rain = 0
KSB1 142045Z 25007KT 33/04 A3002 RMK A01 T03310043  RH  016%=      5-min Rain = 0
KSB1 142046Z 24008KT 33/04 A3002 RMK A01 T03310044  RH  016%=      5-min Rain = 0
KSB1 142047Z 26010KT 33/05 A3002 RMK A01 T03330046  RH  017%=      5-min Rain = 0
KSB1 142048Z 23011KT 34/05 A3002 RMK A01 T03370052  RH  017%=      5-min Rain = 0
KSB1 142049Z 23011KT 34/05 A3002 RMK A01 T03420052  RH  016%=      5-min Rain = 0
KSB1 142050Z 22013KT 34/05 A3002 RMK A01 T03420050  RH  016%=      5-min Rain = 0
KSB1 142051Z 22011G16KT 34/05 A3001 RMK A01 T03410050  RH  016%=      5-min Rain = 0
KSB1 142052Z 21008G16KT 34/05 A3002 RMK A01 T03400050  RH  016%=      5-min Rain = 0
KSB1 142053Z 27006G20KT 34/05 A3001 RMK A01 T03380048  RH  016%=      5-min Rain = 0
KSB1 142054Z 27011G19KT 34/04 A3002 RMK A01 T03370044  RH  016%=      5-min Rain = 0
KSB1 142055Z 25014KT 33/04 A3002 RMK A01 T03340044  RH  016%=      5-min Rain = 0
KSB1 142056Z 24011KT 33/05 A3002 RMK A01 T03330046  RH  017%=      5-min Rain = 0
KSB1 142057Z 24011KT 33/05 A3002 RMK A01 T03340046  RH  016%=      5-min Rain = 0
KSB1 142058Z 29008KT 33/05 A3002 RMK A01 T03340046  RH  016%=      5-min Rain = 0
KSB1 142059Z 25002KT 33/04 A3002 RMK A01 T03330042  RH  016%=      5-min Rain = 0
KSB1 142100Z 20004KT 33/05 A3002 RMK A01 T03330047  RH  017%=      5-min Rain = 0
KSB1 142101Z 19007KT 33/05 A3002 RMK A01 T03340045  RH  016%=      5-min Rain = 0
KSB1 142102Z 20007KT 33/04 A3001 RMK A01 T03340044  RH  016%=      5-min Rain = 0
KSB1 142103Z 23008KT 33/05 A3001 RMK A01 T03340046  RH  016%=      5-min Rain = 0
KSB1 142104Z 26009KT 34/05 A3001 RMK A01 T03380048  RH  016%=      5-min Rain = 0
KSB1 142105Z 25013G18KT 34/05 A3002 RMK A01 T03410050  RH  016%=      5-min Rain = 0
KSB1 142106Z 25017KT 34/04 A3001 RMK A01 T03410044  RH  016%=      5-min Rain = 0
KSB1 142107Z 25013KT 34/04 A3002 RMK A01 T03380044  RH  016%=      5-min Rain = 0
KSB1 142108Z 24013KT 34/04 A3002 RMK A01 T03350041  RH  016%=      5-min Rain = 0
KSB1 142109Z 24010G15KT 33/04 A3001 RMK A01 T03310040  RH  016%=      5-min Rain = 0
KSB1 142110Z 23010KT 33/05 A3001 RMK A01 T03310045  RH  017%=      5-min Rain = 0
KSB1 142111Z 23008KT 33/04 A3001 RMK A01 T03340044  RH  016%=      5-min Rain = 0
KSB1 142112Z 23007G12KT 34/04 A3001 RMK A01 T03350044  RH  016%=      5-min Rain = 0
KSB1 142113Z 23008KT 34/05 A3001 RMK A01 T03350046  RH  016%=      5-min Rain = 0
KSB1 142114Z 25006KT 34/05 A3001 RMK A01 T03380045  RH  016%=      5-min Rain = 0
KSB1 142115Z 25009KT 34/04 A3001 RMK A01 T03400044  RH  016%=      5-min Rain = 0
KSB1 142116Z 25009KT 34/04 A3001 RMK A01 T03410044  RH  016%=      5-min Rain = 0
KSB1 142117Z 24008KT 34/04 A3001 RMK A01 T03380041  RH  016%=      5-min Rain = 0
KSB1 142118Z 26009KT 34/04 A3001 RMK A01 T03370043  RH  016%=      5-min Rain = 0
KSB1 142119Z 27010KT 34/04 A3001 RMK A01 T03380038  RH  015%=      5-min Rain = 0
KSB1 142120Z 26012KT 34/04 A3001 RMK A01 T03380037  RH  015%=      5-min Rain = 0
KSB1 142121Z 25011KT 34/04 A3001 RMK A01 T03390037  RH  015%=      5-min Rain = 0
KSB1 142122Z 26011KT 34/04 A3001 RMK A01 T03410036  RH  015%=      5-min Rain = 0
KSB1 142123Z 27009KT 34/04 A30 RMK A01 T03420037  RH  015%=      5-min Rain = 0
KSB1 142124Z 27007KT 34/04 A30 RMK A01 T03410035  RH  015%=      5-min Rain = 0
KSB1 142125Z 22010KT 34/04 A30 RMK A01 T03410038  RH  015%=      5-min Rain = 0
KSB1 142126Z 22015G20KT 34/04 A30 RMK A01 T03430039  RH  015%=      5-min Rain = 0
KSB1 142127Z 23015KT 35/03 A30 RMK A01 T03490034  RH  014%=      5-min Rain = 0
KSB1 142128Z 22013G18KT 35/03 A30 RMK A01 T03540030  RH  013%=      5-min Rain = 0
KSB1 142129Z 20011KT 35/02 A30 RMK A01 T03510024  RH  013%=      5-min Rain = 0
KSB1 142130Z 20010KT 35/02 A30 RMK A01 T03450023  RH  013%=      5-min Rain = 0
KSB1 142131Z 22009KT 34/03 A30 RMK A01 T03430026  RH  014%=      5-min Rain = 0
KSB1 142132Z 22016KT 35/03 A30 RMK A01 T03490030  RH  014%=      5-min Rain = 0
KSB1 142133Z 23018G24KT 35/03 A30 RMK A01 T03530027  RH  013%=      5-min Rain = 0
KSB1 142134Z 23015KT 35/02 A30 RMK A01 T03530022  RH  013%=      5-min Rain = 0
KSB1 142135Z 23018G23KT 35/02 A30 RMK A01 T03500023  RH  013%=      5-min Rain = 0
KSB1 142136Z 23019KT 35/02 A30 RMK A01 T03500020  RH  013%=      5-min Rain = 0
KSB1 142137Z 23017KT 35/02 A30 RMK A01 T03490023  RH  013%=      5-min Rain = 0
KSB1 142138Z 22017KT 35/02 A2999 RMK A01 T03500022  RH  013%=      5-min Rain = 0
KSB1 142139Z 24020G25KT 35/02 A2999 RMK A01 T03500022  RH  013%=      5-min Rain = 0
KSB1 142140Z 24021KT 35/02 A30 RMK A01 T03510019  RH  012%=      5-min Rain = 0
KSB1 142141Z 24018KT 35/02 A30 RMK A01 T03510020  RH  012%=      5-min Rain = 0
KSB1 142142Z 24020G25KT 35/02 A30 RMK A01 T03510016  RH  012%=      5-min Rain = 0
KSB1 142143Z 24023KT 35/02 A30 RMK A01 T03510017  RH  012%=      5-min Rain = 0
KSB1 142144Z 25024KT 35/02 A30 RMK A01 T03530017  RH  012%=      5-min Rain = 0
KSB1 142145Z 24019KT 35/02 A30 RMK A01 T03520015  RH  012%=      5-min Rain = 0
KSB1 142146Z 24021KT 35/01 A30 RMK A01 T03480014  RH  012%=      5-min Rain = 0
KSB1 142147Z 23023KT 35/02 A30 RMK A01 T03480016  RH  012%=      5-min Rain = 0
KSB1 142148Z 23018G23KT 35/01 A30 RMK A01 T03480014  RH  012%=      5-min Rain = 0
KSB1 142149Z 24018G24KT 35/01 A30 RMK A01 T03490014  RH  012%=      5-min Rain = 0
KSB1 142150Z 25012KT 35/01 A30 RMK A01 T03470010  RH  012%=      5-min Rain = 0
KSB1 142151Z 25015KT 35/01 A30 RMK A01 T03450012  RH  012%=      5-min Rain = 0
KSB1 142152Z 25016KT 35/01 A30 RMK A01 T03460012  RH  012%=      5-min Rain = 0
KSB1 142153Z 25013KT 35/01 A30 RMK A01 T03460009  RH  012%=      5-min Rain = 0
KSB1 142154Z 25009KT 34/01 A2999 RMK A01 T03430009  RH  012%=      5-min Rain = 0
KSB1 142155Z 24010KT 34/01 A2999 RMK A01 T03430011  RH  012%=      5-min Rain = 0
KSB1 142156Z 25014G21KT 34/01 A2999 RMK A01 T03430011  RH  012%=      5-min Rain = 0
KSB1 142157Z 26017KT 34/01 A2999 RMK A01 T03420009  RH  012%=      5-min Rain = 0
KSB1 142158Z 26016KT 34/01 A2999 RMK A01 T03400007  RH  012%=      5-min Rain = 0
KSB1 142159Z 24019KT 34/01 A2999 RMK A01 T03390008  RH  012%=      5-min Rain = 0
KSB1 142200Z 24021KT 34/01 A2999 RMK A01 T03400008  RH  012%=      5-min Rain = 0
KSB1 142201Z 22020G25KT 34/01 A2999 RMK A01 T03420008  RH  012%=      5-min Rain = 0
KSB1 142202Z 23016KT 34/01 A2999 RMK A01 T03440007  RH  012%=      5-min Rain = 0
KSB1 142203Z 24014KT 35/01 A2999 RMK A01 T03470008  RH  012%=      5-min Rain = 0
KSB1 142204Z 23019KT 35/01 A2999 RMK A01 T03490009  RH  012%=      5-min Rain = 0
KSB1 142205Z 22016G22KT 35/01 A2999 RMK A01 T03490008  RH  012%=      5-min Rain = 0
KSB1 142206Z 22017KT 35/01 A2999 RMK A01 T03480007  RH  012%=      5-min Rain = 0
KSB1 142207Z 22016KT 35/01 A2999 RMK A01 T03490009  RH  012%=      5-min Rain = 0
KSB1 142208Z 22020KT 35/01 A2998 RMK A01 T03510010  RH  012%=      5-min Rain = 0
KSB1 142209Z 23016G21KT 35/01 A2999 RMK A01 T03520010  RH  012%=      5-min Rain = 0
KSB1 142210Z 22016KT 35/01 A2999 RMK A01 T03540012  RH  012%=      5-min Rain = 0
KSB1 142211Z 23019KT 35/01 A2999 RMK A01 T03530011  RH  012%=      5-min Rain = 0
KSB1 142212Z 25014G20KT 35/01 A2999 RMK A01 T03500008  RH  011%=      5-min Rain = 0
KSB1 142213Z 24017KT 35/01 A2999 RMK A01 T03470008  RH  012%=      5-min Rain = 0
KSB1 142214Z 24013KT 35/01 A2999 RMK A01 T03460010  RH  012%=      5-min Rain = 0
KSB1 142215Z 25011KT 35/01 A2999 RMK A01 T03510012  RH  012%=      5-min Rain = 0
KSB1 142216Z 24008KT 35/01 A2999 RMK A01 T03530010  RH  012%=      5-min Rain = 0
KSB1 142217Z 25005KT 35/01 A2998 RMK A01 T03520011  RH  012%=      5-min Rain = 0
KSB1 142218Z 28007G12KT 35/01 A2998 RMK A01 T03530010  RH  011%=      5-min Rain = 0
KSB1 142219Z 27012KT 35/01 A2999 RMK A01 T03540008  RH  011%=      5-min Rain = 0
KSB1 142220Z 26010KT 35/01 A2999 RMK A01 T03520005  RH  011%=      5-min Rain = 0
KSB1 142221Z 25009KT 35/01 A2999 RMK A01 T03510006  RH  011%=      5-min Rain = 0
KSB1 142222Z 27011G16KT 35/01 A2998 RMK A01 T03530009  RH  011%=      5-min Rain = 0
KSB1 142223Z 27012KT 35/01 A2998 RMK A01 T03540007  RH  011%=      5-min Rain = 0
KSB1 142224Z 25011G16KT 35/01 A2998 RMK A01 T03540008  RH  011%=      5-min Rain = 0
KSB1 142225Z 26011KT 36/01 A2998 RMK A01 T03550011  RH  011%=      5-min Rain = 0
KSB1 142226Z 28012KT 36/01 A2998 RMK A01 T03600012  RH  011%=      5-min Rain = 0
KSB1 142227Z 22017G22KT 36/01 A2998 RMK A01 T03580012  RH  011%=      5-min Rain = 0
KSB1 142228Z 21017G22KT 36/01 A2998 RMK A01 T03560013  RH  012%=      5-min Rain = 0
KSB1 142229Z 23020KT 36/01 A2998 RMK A01 T03550008  RH  011%=      5-min Rain = 0
KSB1 142230Z 25016G21KT 35/01 A2998 RMK A01 T03530008  RH  011%=      5-min Rain = 0
KSB1 142231Z 27016KT 35/00 A2998 RMK A01 T03540004  RH  011%=      5-min Rain = 0
KSB1 142232Z 26017KT 35/00 A2998 RMK A01 T03520001  RH  011%=      5-min Rain = 0
KSB1 142233Z 26016G21KT 35/00 A2998 RMK A01 T03490002  RH  011%=      5-min Rain = 0
KSB1 142234Z 28017KT 35/00 A2998 RMK A01 T03500003  RH  011%=      5-min Rain = 0
KSB1 142235Z 27014KT 36/01 A2998 RMK A01 T03550005  RH  011%=      5-min Rain = 0
KSB1 142236Z 27013KT 36/00 A2998 RMK A01 T03550003  RH  011%=      5-min Rain = 0
KSB1 142237Z 28012KT 35/00 A2998 RMK A01 T03540004  RH  011%=      5-min Rain = 0
KSB1 142238Z 27012KT 36/01 A2998 RMK A01 T03560005  RH  011%=      5-min Rain = 0
KSB1 142239Z 28016KT 35/00 A2998 RMK A01 T03540003  RH  011%=      5-min Rain = 0
KSB1 142240Z 30012G17KT 35/00 A2998 RMK A01 T03520003  RH  011%=      5-min Rain = 0
KSB1 142241Z 31014KT 35/00 A2998 RMK A01 T03520004  RH  011%=      5-min Rain = 0
KSB1 142242Z 31015KT 35/00 A2997 RMK A01 T03500003  RH  011%=      5-min Rain = 0
KSB1 142243Z 28014KT 35/00 A2998 RMK A01 T03470003  RH  011%=      5-min Rain = 0
KSB1 142244Z 26013KT 35/00 A2998 RMK A01 T03460004  RH  011%=      5-min Rain = 0
KSB1 142245Z 28016G23KT 34/00 A2998 RMK A01 T03440004  RH  012%=      5-min Rain = 0
KSB1 142246Z 27014KT 34/01 A2998 RMK A01 T03440006  RH  012%=      5-min Rain = 0
KSB1 142247Z 28013KT 34/01 A2998 RMK A01 T03440005  RH  012%=      5-min Rain = 0
KSB1 142248Z 29012KT 35/01 A2998 RMK A01 T03450007  RH  012%=      5-min Rain = 0
KSB1 142249Z 27011KT 35/01 A2998 RMK A01 T03460008  RH  012%=      5-min Rain = 0
KSB1 142250Z 28009KT 35/01 A2998 RMK A01 T03470008  RH  012%=      5-min Rain = 0
KSB1 142251Z 28014KT 35/01 A2998 RMK A01 T03470009  RH  012%=      5-min Rain = 0
KSB1 142252Z 27014KT 35/01 A2998 RMK A01 T03470007  RH  012%=      5-min Rain = 0
KSB1 142253Z 27014G20KT 35/01 A2998 RMK A01 T03470008  RH  012%=      5-min Rain = 0
KSB1 142254Z 27018KT 35/01 A2998 RMK A01 T03480011  RH  012%=      5-min Rain = 0
KSB1 142255Z 27015G20KT 35/01 A2998 RMK A01 T03490010  RH  012%=      5-min Rain = 0
KSB1 142256Z 27013KT 35/01 A2997 RMK A01 T03490010  RH  012%=      5-min Rain = 0
KSB1 142257Z 26017KT 35/01 A2997 RMK A01 T03490010  RH  012%=      5-min Rain = 0
KSB1 142258Z 26017KT 35/01 A2998 RMK A01 T03500008  RH  012%=      5-min Rain = 0
KSB1 142259Z 24016KT 35/01 A2998 RMK A01 T03490008  RH  012%=      5-min Rain = 0
KSB1 142300Z 26014KT 35/01 A2998 RMK A01 T03490010  RH  012%=      5-min Rain = 0
KSB1 142301Z 28017KT 35/01 A2998 RMK A01 T03490010  RH  012%=      5-min Rain = 0
KSB1 142302Z 27017KT 35/01 A2998 RMK A01 T03480010  RH  012%=      5-min Rain = 0
KSB1 142303Z 27014KT 35/01 A2998 RMK A01 T03450008  RH  012%=      5-min Rain = 0
KSB1 142304Z 26011KT 34/01 A2998 RMK A01 T03420008  RH  012%=      5-min Rain = 0
KSB1 142305Z 26011KT 34/01 A2998 RMK A01 T03410007  RH  012%=      5-min Rain = 0
KSB1 142306Z 25011KT 34/01 A2998 RMK A01 T03410008  RH  012%=      5-min Rain = 0
KSB1 142307Z 25014G19KT 34/01 A2998 RMK A01 T03430010  RH  012%=      5-min Rain = 0
KSB1 142308Z 24014G20KT 34/01 A2997 RMK A01 T03430012  RH  012%=      5-min Rain = 0
KSB1 142309Z 23012KT 34/01 A2997 RMK A01 T03420014  RH  013%=      5-min Rain = 0
KSB1 142310Z 22013KT 34/01 A2997 RMK A01 T03400013  RH  013%=      5-min Rain = 0
KSB1 142311Z 22014KT 34/01 A2997 RMK A01 T03380014  RH  013%=      5-min Rain = 0
KSB1 142312Z 21015KT 34/01 A2997 RMK A01 T03370012  RH  013%=      5-min Rain = 0
KSB1 142313Z 22016KT 34/01 A2997 RMK A01 T03350012  RH  013%=      5-min Rain = 0
KSB1 142314Z 21015KT 33/01 A2997 RMK A01 T03340013  RH  013%=      5-min Rain = 0
KSB1 142315Z 21013KT 33/01 A2997 RMK A01 T03340014  RH  013%=      5-min Rain = 0
KSB1 142316Z 21013KT 33/01 A2997 RMK A01 T03340013  RH  013%=      5-min Rain = 0
KSB1 142317Z 22011KT 33/01 A2997 RMK A01 T03330012  RH  013%=      5-min Rain = 0
KSB1 142318Z 23010KT 33/01 A2997 RMK A01 T03330012  RH  013%=      5-min Rain = 0
KSB1 142319Z 25011G16KT 33/01 A2997 RMK A01 T03330012  RH  013%=      5-min Rain = 0
KSB1 142320Z 24013KT 33/01 A2997 RMK A01 T03330014  RH  013%=      5-min Rain = 0
KSB1 142321Z 22012KT 33/02 A2997 RMK A01 T03340015  RH  013%=      5-min Rain = 0
KSB1 142322Z 22010KT 34/02 A2997 RMK A01 T03350015  RH  013%=      5-min Rain = 0
KSB1 142323Z 23011KT 34/02 A2996 RMK A01 T03370016  RH  013%=      5-min Rain = 0
KSB1 142324Z 22013KT 34/02 A2996 RMK A01 T03390018  RH  013%=      5-min Rain = 0
KSB1 142325Z 24013KT 34/02 A2996 RMK A01 T03410015  RH  013%=      5-min Rain = 0
KSB1 142326Z 22014KT 34/02 A2996 RMK A01 T03400016  RH  013%=      5-min Rain = 0
KSB1 142327Z 22011KT 34/02 A2996 RMK A01 T03400015  RH  013%=      5-min Rain = 0
KSB1 142328Z 24009KT 34/02 A2996 RMK A01 T03400016  RH  013%=      5-min Rain = 0
KSB1 142329Z 25007KT 34/01 A2996 RMK A01 T03400013  RH  013%=      5-min Rain = 0
KSB1 142330Z 24008KT 34/01 A2996 RMK A01 T03410014  RH  013%=      5-min Rain = 0
KSB1 142331Z 24011KT 34/02 A2996 RMK A01 T03420015  RH  013%=      5-min Rain = 0
KSB1 142332Z 25009KT 34/02 A2996 RMK A01 T03440015  RH  012%=      5-min Rain = 0
KSB1 142333Z 27011KT 35/01 A2996 RMK A01 T03450012  RH  012%=      5-min Rain = 0
KSB1 142334Z 27013KT 35/00 A2996 RMK A01 T03460004  RH  011%=      5-min Rain = 0
KSB1 142335Z 28014KT 35/00 A2996 RMK A01 T03470003  RH  011%=      5-min Rain = 0
KSB1 142336Z 28013G18KT 35/00 A2996 RMK A01 T03470003  RH  011%=      5-min Rain = 0
KSB1 142337Z 26012KT 35/00 A2996 RMK A01 T03490004  RH  011%=      5-min Rain = 0
KSB1 142338Z 26014KT 35/01 A2996 RMK A01 T03490005  RH  011%=      5-min Rain = 0
KSB1 142339Z 26013KT 35/00 A2996 RMK A01 T03480002  RH  011%=      5-min Rain = 0
KSB1 142340Z 27012KT 35/00 A2996 RMK A01 T03460001  RH  011%=      5-min Rain = 0
KSB1 142341Z 28010KT 35/00 A2996 RMK A01 T03460004  RH  011%=      5-min Rain = 0
KSB1 142342Z 28013G18KT 35/00 A2996 RMK A01 T03460002  RH  011%=      5-min Rain = 0
KSB1 142343Z 27014KT 35/00 A2996 RMK A01 T03460002  RH  011%=      5-min Rain = 0
KSB1 142344Z 26014G19KT 35/00 A2996 RMK A01 T03470003  RH  011%=      5-min Rain = 0
KSB1 142345Z 25014KT 35/00 A2996 RMK A01 T03470002  RH  011%=      5-min Rain = 0
KSB1 142346Z 26008KT 35/00 A2996 RMK A01 T03450002  RH  011%=      5-min Rain = 0
KSB1 142347Z 28007G12KT 35/01 A2996 RMK A01 T03470005  RH  011%=      5-min Rain = 0
KSB1 142348Z 27010KT 35/00 A2996 RMK A01 T03480001  RH  011%=      5-min Rain = 0
KSB1 142349Z 26013KT 35/00 A2996 RMK A01 T03460001  RH  011%=      5-min Rain = 0
KSB1 142350Z 26016KT 35/00 A2996 RMK A01 T03460002  RH  011%=      5-min Rain = 0
KSB1 142351Z 27018KT 35/00 A2996 RMK A01 T03450002  RH  011%=      5-min Rain = 0
KSB1 142352Z 25016KT 34/00 A2996 RMK A01 T03440002  RH  011%=      5-min Rain = 0
KSB1 142353Z 27014KT 34/00 A2996 RMK A01 T03430002  RH  012%=      5-min Rain = 0
KSB1 142354Z 27015KT 34/00 A2996 RMK A01 T03430003  RH  012%=      5-min Rain = 0
KSB1 142355Z 27013KT 34/00 A2996 RMK A01 T03440003  RH  012%=      5-min Rain = 0
KSB1 142356Z 27014KT 34/00 A2995 RMK A01 T03420002  RH  012%=      5-min Rain = 0
KSB1 142357Z 26015KT 34/00 A2995 RMK A01 T03390001  RH  012%=      5-min Rain = 0
KSB1 142358Z 26016KT 34/00 A2995 RMK A01 T033700-0  RH  012%=      5-min Rain = 0
KSB1 142359Z 26014KT 34/M00 A2995 RMK A01 T03371002  RH  012%=      5-min Rain = 0
KSB1 150000Z 27013KT 34/M00 A2995 RMK A01 T03381001  RH  012%=      5-min Rain = 0
KSB1 150001Z 27013KT 34/00 A2995 RMK A01 T033900-0  RH  012%=      5-min Rain = 0
KSB1 150002Z 28013KT 34/00 A2995 RMK A01 T03400002  RH  012%=      5-min Rain = 0
KSB1 150003Z 26016KT 34/00 A2995 RMK A01 T03420001  RH  011%=      5-min Rain = 0
KSB1 150004Z 26013KT 34/00 A2995 RMK A01 T034200-0  RH  011%=      5-min Rain = 0
KSB1 150005Z 27012KT 34/00 A2995 RMK A01 T03410001  RH  011%=      5-min Rain = 0
KSB1 150006Z 26013KT 34/00 A2995 RMK A01 T03420002  RH  011%=      5-min Rain = 0
KSB1 150007Z 28012KT 34/00 A2995 RMK A01 T03420001  RH  011%=      5-min Rain = 0
KSB1 150008Z 28010KT 34/00 A2995 RMK A01 T034000-0  RH  011%=      5-min Rain = 0
KSB1 150009Z 28008KT 34/00 A2995 RMK A01 T03400002  RH  012%=      5-min Rain = 0
KSB1 150010Z 27008KT 34/00 A2995 RMK A01 T03410003  RH  012%=      5-min Rain = 0
KSB1 150011Z 27009KT 34/01 A2995 RMK A01 T03430005  RH  012%=      5-min Rain = 0
KSB1 150012Z 27008KT 34/00 A2995 RMK A01 T03440003  RH  012%=      5-min Rain = 0
KSB1 150013Z 27010KT 35/01 A2995 RMK A01 T03450005  RH  012%=      5-min Rain = 0
KSB1 150014Z 28010KT 34/01 A2995 RMK A01 T03430005  RH  012%=      5-min Rain = 0
KSB1 150015Z 28009KT 34/01 A2995 RMK A01 T03420007  RH  012%=      5-min Rain = 0
KSB1 150016Z 30008G14KT 34/01 A2995 RMK A01 T03420008  RH  012%=      5-min Rain = 0
KSB1 150017Z 30011G17KT 34/01 A2995 RMK A01 T03440008  RH  012%=      5-min Rain = 0
KSB1 150018Z 30017KT 34/01 A2995 RMK A01 T03430007  RH  012%=      5-min Rain = 0
KSB1 150019Z 29011KT 34/01 A2995 RMK A01 T03410005  RH  012%=      5-min Rain = 0
KSB1 150020Z 29009KT 34/01 A2995 RMK A01 T03390006  RH  012%=      5-min Rain = 0
KSB1 150021Z 29008KT 34/01 A2995 RMK A01 T03410008  RH  012%=      5-min Rain = 0
KSB1 150022Z 29011KT 34/01 A2995 RMK A01 T03420008  RH  012%=      5-min Rain = 0
KSB1 150023Z 28012KT 34/01 A2995 RMK A01 T03430008  RH  012%=      5-min Rain = 0
KSB1 150024Z 28009KT 34/01 A2995 RMK A01 T03410005  RH  012%=      5-min Rain = 0
KSB1 150025Z 31008KT 34/01 A2995 RMK A01 T03400007  RH  012%=      5-min Rain = 0
KSB1 150026Z 30009KT 34/01 A2995 RMK A01 T03400006  RH  012%=      5-min Rain = 0
KSB1 150027Z 31009KT 34/01 A2995 RMK A01 T03400007  RH  012%=      5-min Rain = 0
KSB1 150028Z 30007KT 34/01 A2995 RMK A01 T03400008  RH  012%=      5-min Rain = 0
KSB1 150029Z 29010KT 34/01 A2995 RMK A01 T03410008  RH  012%=      5-min Rain = 0
KSB1 150030Z 28008KT 34/01 A2995 RMK A01 T03410007  RH  012%=      5-min Rain = 0
KSB1 150031Z 28009KT 34/01 A2995 RMK A01 T03420007  RH  012%=      5-min Rain = 0
KSB1 150032Z 29009KT 34/01 A2995 RMK A01 T03420006  RH  012%=      5-min Rain = 0
KSB1 150033Z 31007G14KT 34/01 A2995 RMK A01 T03410007  RH  012%=      5-min Rain = 0
KSB1 150034Z 29014G19KT 34/01 A2994 RMK A01 T03420007  RH  012%=      5-min Rain = 0
KSB1 150035Z 28013KT 34/00 A2995 RMK A01 T03410004  RH  012%=      5-min Rain = 0
KSB1 150036Z 28011KT 34/00 A2995 RMK A01 T03390003  RH  012%=      5-min Rain = 0
KSB1 150037Z 27009G15KT 34/01 A2995 RMK A01 T03390006  RH  012%=      5-min Rain = 0
KSB1 150038Z 28012KT 34/01 A2995 RMK A01 T03400005  RH  012%=      5-min Rain = 0
KSB1 150039Z 31010KT 34/01 A2995 RMK A01 T03390005  RH  012%=      5-min Rain = 0
KSB1 150040Z 29010G15KT 34/00 A2995 RMK A01 T03390004  RH  012%=      5-min Rain = 0
KSB1 150041Z 28012KT 34/01 A2995 RMK A01 T03390005  RH  012%=      5-min Rain = 0
KSB1 150042Z 28009KT 34/00 A2995 RMK A01 T03390003  RH  012%=      5-min Rain = 0
KSB1 150043Z 28010KT 34/00 A2995 RMK A01 T03390003  RH  012%=      5-min Rain = 0
KSB1 150044Z 28012KT 34/00 A2995 RMK A01 T03390003  RH  012%=      5-min Rain = 0
KSB1 150045Z 28009KT 34/00 A2995 RMK A01 T03380002  RH  012%=      5-min Rain = 0
KSB1 150046Z 27009KT 34/00 A2995 RMK A01 T03380003  RH  012%=      5-min Rain = 0
KSB1 150047Z 28008KT 34/00 A2994 RMK A01 T03370001  RH  012%=      5-min Rain = 0
KSB1 150048Z 27004KT 34/00 A2994 RMK A01 T03370002  RH  012%=      5-min Rain = 0
KSB1 150049Z 29012G17KT 34/00 A2994 RMK A01 T03370003  RH  012%=      5-min Rain = 0
KSB1 150050Z 31009KT 34/00 A2994 RMK A01 T03380003  RH  012%=      5-min Rain = 0
KSB1 150051Z 30012KT 34/00 A2994 RMK A01 T03390002  RH  012%=      5-min Rain = 0
KSB1 150052Z 30013KT 34/00 A2994 RMK A01 T03380001  RH  012%=      5-min Rain = 0
KSB1 150053Z 31011KT 34/00 A2994 RMK A01 T033800-0  RH  012%=      5-min Rain = 0
KSB1 150054Z 30012KT 34/00 A2994 RMK A01 T03370001  RH  012%=      5-min Rain = 0
KSB1 150055Z 29010KT 34/00 A2994 RMK A01 T033700-0  RH  012%=      5-min Rain = 0
KSB1 150056Z 30008KT 34/00 A2994 RMK A01 T03380000  RH  012%=      5-min Rain = 0
KSB1 150057Z 31008KT 34/M00 A2994 RMK A01 T03381001  RH  012%=      5-min Rain = 0
KSB1 150058Z 31007KT 34/M00 A2994 RMK A01 T03381002  RH  011%=      5-min Rain = 0
KSB1 150059Z 30009KT 34/00 A2994 RMK A01 T033700-0  RH  012%=      5-min Rain = 0
KSB1 150100Z 30008KT 34/M00 A2994 RMK A01 T03381001  RH  012%=      5-min Rain = 0
KSB1 150101Z 30013KT 34/M00 A2994 RMK A01 T03381001  RH  012%=      5-min Rain = 0
KSB1 150102Z 28013G18KT 34/M00 A2994 RMK A01 T03371002  RH  011%=      5-min Rain = 0
KSB1 150103Z 26013KT 34/M00 A2995 RMK A01 T03371001  RH  012%=      5-min Rain = 0
KSB1 150104Z 27011KT 34/M00 A2995 RMK A01 T03371002  RH  012%=      5-min Rain = 0
KSB1 150105Z 27009KT 34/M00 A2995 RMK A01 T03361001  RH  012%=      5-min Rain = 0
KSB1 150106Z 28011KT 34/M00 A2995 RMK A01 T03361002  RH  012%=      5-min Rain = 0
KSB1 150107Z 27010KT 34/M00 A2995 RMK A01 T03361002  RH  012%=      5-min Rain = 0
KSB1 150108Z 26009KT 34/M00 A2995 RMK A01 T03361001  RH  012%=      5-min Rain = 0
KSB1 150109Z 27007KT 34/00 A2995 RMK A01 T033500-0  RH  012%=      5-min Rain = 0
KSB1 150110Z 27009KT 34/00 A2995 RMK A01 T03360001  RH  012%=      5-min Rain = 0
KSB1 150111Z 28010KT 34/00 A2995 RMK A01 T03350000  RH  012%=      5-min Rain = 0
KSB1 150112Z 28012KT 33/M00 A2995 RMK A01 T03341002  RH  012%=      5-min Rain = 0
KSB1 150113Z 29010KT 33/M00 A2995 RMK A01 T03331001  RH  012%=      5-min Rain = 0
KSB1 150114Z 28012KT 33/M00 A2995 RMK A01 T03331001  RH  012%=      5-min Rain = 0
KSB1 150115Z 28010KT 33/M00 A2995 RMK A01 T03321003  RH  012%=      5-min Rain = 0
KSB1 150116Z 28009KT 33/M00 A2995 RMK A01 T03321002  RH  012%=      5-min Rain = 0
KSB1 150117Z 28008KT 33/M00 A2995 RMK A01 T03321002  RH  012%=      5-min Rain = 0
KSB1 150118Z 28011KT 33/M00 A2995 RMK A01 T03321002  RH  012%=      5-min Rain = 0
KSB1 150119Z 27009KT 33/M00 A2995 RMK A01 T03321002  RH  012%=      5-min Rain = 0
KSB1 150120Z 27011KT 33/M00 A2995 RMK A01 T03321002  RH  012%=      5-min Rain = 0
KSB1 150121Z 27008KT 33/M00 A2995 RMK A01 T03311003  RH  012%=      5-min Rain = 0
KSB1 150122Z 28008KT 33/M00 A2995 RMK A01 T03311002  RH  012%=      5-min Rain = 0
KSB1 150123Z 29006KT 33/M00 A2995 RMK A01 T03311002  RH  012%=      5-min Rain = 0
KSB1 150124Z 29006KT 33/M00 A2995 RMK A01 T03311002  RH  012%=      5-min Rain = 0
KSB1 150125Z 28010KT 33/M00 A2995 RMK A01 T03311003  RH  012%=      5-min Rain = 0
KSB1 150126Z 28009KT 33/M00 A2995 RMK A01 T03301004  RH  012%=      5-min Rain = 0
KSB1 150127Z 28008KT 33/M00 A2995 RMK A01 T03301004  RH  012%=      5-min Rain = 0
KSB1 150128Z 28010KT 33/M00 A2995 RMK A01 T03301004  RH  012%=      5-min Rain = 0
KSB1 150129Z 28011KT 33/M00 A2995 RMK A01 T03291003  RH  012%=      5-min Rain = 0
KSB1 150130Z 31008KT 33/M00 A2995 RMK A01 T03291003  RH  012%=      5-min Rain = 0
KSB1 150131Z 29009KT 33/M00 A2995 RMK A01 T03281003  RH  012%=      5-min Rain = 0
KSB1 150132Z 30007KT 33/M00 A2995 RMK A01 T03281003  RH  012%=      5-min Rain = 0
KSB1 150133Z 31008KT 33/M00 A2995 RMK A01 T03281003  RH  012%=      5-min Rain = 0
KSB1 150134Z 28007KT 33/M00 A2995 RMK A01 T03281002  RH  012%=      5-min Rain = 0
KSB1 150135Z 29008G13KT 33/M00 A2995 RMK A01 T03271002  RH  012%=      5-min Rain = 0
KSB1 150136Z 28010KT 33/M00 A2995 RMK A01 T03271003  RH  012%=      5-min Rain = 0
KSB1 150137Z 31008G14KT 33/M00 A2995 RMK A01 T03271002  RH  012%=      5-min Rain = 0
KSB1 150138Z 30012KT 33/M00 A2995 RMK A01 T03261001  RH  012%=      5-min Rain = 0
KSB1 150139Z 29008KT 33/M00 A2995 RMK A01 T03261002  RH  012%=      5-min Rain = 0
KSB1 150140Z 29008KT 33/M00 A2995 RMK A01 T03261001  RH  012%=      5-min Rain = 0
KSB1 150141Z 28008KT 33/00 A2995 RMK A01 T032500-0  RH  012%=      5-min Rain = 0
KSB1 150142Z 30008KT 33/00 A2995 RMK A01 T032500-0  RH  012%=      5-min Rain = 0
KSB1 150143Z 31005KT 32/00 A2995 RMK A01 T03240001  RH  013%=      5-min Rain = 0
KSB1 150144Z 32006KT 32/00 A2995 RMK A01 T03240001  RH  013%=      5-min Rain = 0
KSB1 150145Z 31009KT 32/00 A2995 RMK A01 T03240001  RH  013%=      5-min Rain = 0
KSB1 150146Z 30006KT 32/00 A2995 RMK A01 T03230001  RH  013%=      5-min Rain = 0
KSB1 150147Z 29006KT 32/00 A2995 RMK A01 T03230002  RH  013%=      5-min Rain = 0
KSB1 150148Z 30006KT 32/00 A2995 RMK A01 T03220002  RH  013%=      5-min Rain = 0
KSB1 150149Z 30006KT 32/00 A2995 RMK A01 T03220002  RH  013%=      5-min Rain = 0
KSB1 150150Z 29008KT 32/00 A2995 RMK A01 T03210001  RH  013%=      5-min Rain = 0
KSB1 150151Z 30007KT 32/00 A2995 RMK A01 T03210001  RH  013%=      5-min Rain = 0
KSB1 150152Z 31007KT 32/00 A2995 RMK A01 T03210002  RH  013%=      5-min Rain = 0
KSB1 150153Z 31009KT 32/00 A2995 RMK A01 T03210002  RH  013%=      5-min Rain = 0
KSB1 150154Z 30010KT 32/00 A2995 RMK A01 T03200001  RH  013%=      5-min Rain = 0
KSB1 150155Z 31008KT 32/00 A2995 RMK A01 T03210001  RH  013%=      5-min Rain = 0
KSB1 150156Z 31010KT 32/00 A2995 RMK A01 T03210002  RH  013%=      5-min Rain = 0
KSB1 150157Z 31011KT 32/00 A2995 RMK A01 T03200002  RH  013%=      5-min Rain = 0
KSB1 150158Z 31009KT 32/00 A2995 RMK A01 T03200002  RH  013%=      5-min Rain = 0
KSB1 150159Z 31012KT 32/00 A2995 RMK A01 T03200003  RH  013%=      5-min Rain = 0
KSB1 150200Z 31013KT 32/00 A2995 RMK A01 T03190002  RH  013%=      5-min Rain = 0
KSB1 150201Z 31011KT 32/00 A2995 RMK A01 T03190002  RH  013%=      5-min Rain = 0
KSB1 150202Z 31013KT 32/00 A2995 RMK A01 T03190002  RH  013%=      5-min Rain = 0
KSB1 150203Z 31010KT 32/00 A2995 RMK A01 T03190001  RH  013%=      5-min Rain = 0
KSB1 150204Z 31010KT 32/00 A2995 RMK A01 T03190002  RH  013%=      5-min Rain = 0
KSB1 150205Z 30010KT 32/00 A2995 RMK A01 T03190002  RH  013%=      5-min Rain = 0
KSB1 150206Z 31010KT 32/00 A2995 RMK A01 T03180002  RH  013%=      5-min Rain = 0
KSB1 150207Z 31012KT 32/00 A2995 RMK A01 T03170001  RH  013%=      5-min Rain = 0
KSB1 150208Z 31013KT 32/00 A2995 RMK A01 T03180001  RH  013%=      5-min Rain = 0
KSB1 150209Z 31012KT 32/00 A2995 RMK A01 T03190001  RH  013%=      5-min Rain = 0
KSB1 150210Z 31013KT 32/00 A2995 RMK A01 T03190001  RH  013%=      5-min Rain = 0
KSB1 150211Z 31012KT 32/00 A2995 RMK A01 T03190001  RH  013%=      5-min Rain = 0
KSB1 150212Z 31011KT 32/00 A2995 RMK A01 T03190001  RH  013%=      5-min Rain = 0
KSB1 150213Z 31011KT 32/00 A2995 RMK A01 T03190002  RH  013%=      5-min Rain = 0
KSB1 150214Z 31012KT 32/00 A2995 RMK A01 T03180002  RH  013%=      5-min Rain = 0
KSB1 150215Z 31010KT 32/00 A2995 RMK A01 T03180002  RH  013%=      5-min Rain = 0
KSB1 150216Z 30011KT 32/00 A2995 RMK A01 T03180002  RH  013%=      5-min Rain = 0
KSB1 150217Z 30011KT 32/00 A2995 RMK A01 T03170002  RH  013%=      5-min Rain = 0
KSB1 150218Z 30010KT 32/00 A2995 RMK A01 T03170002  RH  013%=      5-min Rain = 0
KSB1 150219Z 31010KT 32/00 A2995 RMK A01 T03170002  RH  013%=      5-min Rain = 0
KSB1 150220Z 31012KT 32/00 A2995 RMK A01 T03160003  RH  013%=      5-min Rain = 0
KSB1 150221Z 30009KT 32/00 A2995 RMK A01 T03160002  RH  013%=      5-min Rain = 0
KSB1 150222Z 30008KT 32/00 A2996 RMK A01 T03160003  RH  013%=      5-min Rain = 0
KSB1 150223Z 30007KT 32/00 A2996 RMK A01 T03150003  RH  014%=      5-min Rain = 0
KSB1 150224Z 30008KT 31/00 A2996 RMK A01 T03140003  RH  014%=      5-min Rain = 0
KSB1 150225Z 28008KT 31/00 A2996 RMK A01 T03130003  RH  014%=      5-min Rain = 0
KSB1 150226Z 29008KT 31/00 A2996 RMK A01 T03120003  RH  014%=      5-min Rain = 0
KSB1 150227Z 29007KT 31/00 A2996 RMK A01 T03120003  RH  014%=      5-min Rain = 0
KSB1 150228Z 30007KT 31/00 A2996 RMK A01 T03110003  RH  014%=      5-min Rain = 0
KSB1 150229Z 30008KT 31/00 A2996 RMK A01 T03110004  RH  014%=      5-min Rain = 0
KSB1 150230Z 30009KT 31/00 A2996 RMK A01 T03110004  RH  014%=      5-min Rain = 0
KSB1 150231Z 31009KT 31/00 A2996 RMK A01 T03110003  RH  014%=      5-min Rain = 0
KSB1 150232Z 31009KT 31/00 A2996 RMK A01 T03120003  RH  014%=      5-min Rain = 0
KSB1 150233Z 31010KT 31/00 A2996 RMK A01 T03120003  RH  014%=      5-min Rain = 0
KSB1 150234Z 31011KT 31/00 A2996 RMK A01 T03120003  RH  014%=      5-min Rain = 0
KSB1 150235Z 30009KT 31/00 A2996 RMK A01 T03130003  RH  014%=      5-min Rain = 0
KSB1 150236Z 31009KT 31/00 A2996 RMK A01 T03120003  RH  014%=      5-min Rain = 0
KSB1 150237Z 31010KT 31/00 A2996 RMK A01 T03120003  RH  014%=      5-min Rain = 0
KSB1 150238Z 31010KT 31/00 A2996 RMK A01 T03120003  RH  014%=      5-min Rain = 0
KSB1 150239Z 31009KT 31/00 A2996 RMK A01 T03130002  RH  014%=      5-min Rain = 0
KSB1 150240Z 30009KT 31/00 A2996 RMK A01 T03130003  RH  014%=      5-min Rain = 0
KSB1 150241Z 30007KT 31/00 A2996 RMK A01 T03120003  RH  014%=      5-min Rain = 0
KSB1 150242Z 30009KT 31/00 A2996 RMK A01 T03110004  RH  014%=      5-min Rain = 0
KSB1 150243Z 29007KT 31/00 A2996 RMK A01 T03110004  RH  014%=      5-min Rain = 0
KSB1 150244Z 29006KT 31/00 A2996 RMK A01 T03090004  RH  014%=      5-min Rain = 0
KSB1 150245Z 30006KT 31/01 A2996 RMK A01 T03070005  RH  014%=      5-min Rain = 0
KSB1 150246Z 30007KT 31/00 A2996 RMK A01 T03060004  RH  014%=      5-min Rain = 0
KSB1 150247Z 30008KT 31/00 A2996 RMK A01 T03060004  RH  014%=      5-min Rain = 0
KSB1 150248Z 30008KT 31/00 A2996 RMK A01 T03070003  RH  014%=      5-min Rain = 0
KSB1 150249Z 30009KT 31/00 A2996 RMK A01 T03080002  RH  014%=      5-min Rain = 0
KSB1 150250Z 30008KT 31/00 A2997 RMK A01 T03080003  RH  014%=      5-min Rain = 0
KSB1 150251Z 31009KT 31/00 A2996 RMK A01 T03080003  RH  014%=      5-min Rain = 0
KSB1 150252Z 30009KT 31/00 A2997 RMK A01 T03080002  RH  014%=      5-min Rain = 0
KSB1 150253Z 30010KT 31/00 A2996 RMK A01 T03090003  RH  014%=      5-min Rain = 0
KSB1 150254Z 30012KT 31/00 A2997 RMK A01 T03100001  RH  014%=      5-min Rain = 0
KSB1 150255Z 29009KT 31/00 A2997 RMK A01 T03130001  RH  014%=      5-min Rain = 0
KSB1 150256Z 30009KT 31/00 A2997 RMK A01 T03120002  RH  014%=      5-min Rain = 0
KSB1 150257Z 30010KT 31/00 A2997 RMK A01 T03120002  RH  014%=      5-min Rain = 0
KSB1 150258Z 30011KT 31/00 A2997 RMK A01 T03110002  RH  014%=      5-min Rain = 0
KSB1 150259Z 30012KT 31/00 A2997 RMK A01 T03110001  RH  014%=      5-min Rain = 0
KSB1 150300Z 30011KT 31/00 A2997 RMK A01 T03110001  RH  014%=      5-min Rain = 0
KSB1 150301Z 30011KT 31/00 A2997 RMK A01 T03120001  RH  014%=      5-min Rain = 0
KSB1 150302Z 29010KT 31/00 A2997 RMK A01 T03120001  RH  014%=      5-min Rain = 0
KSB1 150303Z 30008KT 31/00 A2997 RMK A01 T03110001  RH  014%=      5-min Rain = 0
KSB1 150304Z 30010KT 31/00 A2997 RMK A01 T03100001  RH  014%=      5-min Rain = 0
KSB1 150305Z 31008KT 31/00 A2997 RMK A01 T03100002  RH  014%=      5-min Rain = 0
KSB1 150306Z 30009KT 31/00 A2997 RMK A01 T03090002  RH  014%=      5-min Rain = 0
KSB1 150307Z 30009KT 31/00 A2997 RMK A01 T03080002  RH  014%=      5-min Rain = 0
KSB1 150308Z 30009KT 31/00 A2997 RMK A01 T03080002  RH  014%=      5-min Rain = 0
KSB1 150309Z 30010KT 31/00 A2997 RMK A01 T03080002  RH  014%=      5-min Rain = 0
KSB1 150310Z 30010KT 31/00 A2997 RMK A01 T03090001  RH  014%=      5-min Rain = 0
KSB1 150311Z 30008KT 31/00 A2997 RMK A01 T03090002  RH  014%=      5-min Rain = 0
KSB1 150312Z 30009KT 31/00 A2997 RMK A01 T03090002  RH  014%=      5-min Rain = 0
KSB1 150313Z 30009KT 31/00 A2997 RMK A01 T03080002  RH  014%=      5-min Rain = 0
KSB1 150314Z 30008KT 31/00 A2997 RMK A01 T03090002  RH  014%=      5-min Rain = 0
KSB1 150315Z 31009KT 31/00 A2997 RMK A01 T03080002  RH  014%=      5-min Rain = 0
KSB1 150316Z 30009KT 31/00 A2997 RMK A01 T03080002  RH  014%=      5-min Rain = 0
KSB1 150317Z 31008KT 31/00 A2997 RMK A01 T03080002  RH  014%=      5-min Rain = 0
KSB1 150318Z 31010KT 31/00 A2997 RMK A01 T03080002  RH  014%=      5-min Rain = 0
KSB1 150319Z 31009KT 31/00 A2997 RMK A01 T03080001  RH  014%=      5-min Rain = 0
KSB1 150320Z 30010KT 31/00 A2997 RMK A01 T03080002  RH  014%=      5-min Rain = 0
KSB1 150321Z 30010KT 31/00 A2997 RMK A01 T03080001  RH  014%=      5-min Rain = 0
KSB1 150322Z 30008KT 31/00 A2997 RMK A01 T03080001  RH  014%=      5-min Rain = 0
KSB1 150323Z 30008KT 31/00 A2997 RMK A01 T03070001  RH  014%=      5-min Rain = 0
KSB1 150324Z 31008KT 31/00 A2997 RMK A01 T03070001  RH  014%=      5-min Rain = 0
KSB1 150325Z 31008KT 31/00 A2998 RMK A01 T03060001  RH  014%=      5-min Rain = 0
KSB1 150326Z 30009KT 31/00 A2998 RMK A01 T03060001  RH  014%=      5-min Rain = 0
KSB1 150327Z 31010KT 31/00 A2997 RMK A01 T03050001  RH  014%=      5-min Rain = 0
KSB1 150328Z 31010KT 31/00 A2998 RMK A01 T03050001  RH  014%=      5-min Rain = 0
KSB1 150329Z 31009KT 31/00 A2998 RMK A01 T03060000  RH  014%=      5-min Rain = 0
KSB1 150330Z 31009KT 31/00 A2998 RMK A01 T03060001  RH  014%=      5-min Rain = 0
KSB1 150331Z 31008KT 31/00 A2998 RMK A01 T03060001  RH  014%=      5-min Rain = 0
KSB1 150332Z 31009KT 31/00 A2998 RMK A01 T03050001  RH  014%=      5-min Rain = 0
KSB1 150333Z 30010KT 31/00 A2998 RMK A01 T03050001  RH  014%=      5-min Rain = 0
KSB1 150334Z 31009KT 31/00 A2998 RMK A01 T030500-0  RH  014%=      5-min Rain = 0
KSB1 150335Z 31009KT 31/00 A2998 RMK A01 T03060000  RH  014%=      5-min Rain = 0
KSB1 150336Z 31009KT 31/00 A2998 RMK A01 T03050000  RH  014%=      5-min Rain = 0
KSB1 150337Z 31008KT 31/00 A2998 RMK A01 T03050000  RH  014%=      5-min Rain = 0
KSB1 150338Z 31008KT 31/00 A2998 RMK A01 T03050000  RH  014%=      5-min Rain = 0
KSB1 150339Z 31009KT 30/00 A2998 RMK A01 T03040000  RH  014%=      5-min Rain = 0
KSB1 150340Z 30009KT 30/00 A2998 RMK A01 T030400-0  RH  014%=      5-min Rain = 0
KSB1 150341Z 31009KT 30/00 A2998 RMK A01 T030400-0  RH  014%=      5-min Rain = 0
KSB1 150342Z 31010KT 30/00 A2998 RMK A01 T030400-0  RH  014%=      5-min Rain = 0
KSB1 150343Z 30010KT 30/M00 A2998 RMK A01 T03041001  RH  014%=      5-min Rain = 0
KSB1 150344Z 31009KT 30/M00 A2998 RMK A01 T03041001  RH  014%=      5-min Rain = 0
KSB1 150345Z 31009KT 30/M00 A2998 RMK A01 T03041001  RH  014%=      5-min Rain = 0
KSB1 150346Z 31008KT 30/00 A2998 RMK A01 T030400-0  RH  014%=      5-min Rain = 0
KSB1 150347Z 31009KT 30/M00 A2998 RMK A01 T03031001  RH  014%=      5-min Rain = 0
KSB1 150348Z 30010KT 30/M00 A2998 RMK A01 T03031001  RH  014%=      5-min Rain = 0
KSB1 150349Z 31009KT 30/M00 A2998 RMK A01 T03021002  RH  014%=      5-min Rain = 0
KSB1 150350Z 31009KT 30/M00 A2998 RMK A01 T03021001  RH  014%=      5-min Rain = 0
KSB1 150351Z 31008KT 30/M00 A2998 RMK A01 T03021001  RH  014%=      5-min Rain = 0
KSB1 150352Z 31008KT 30/M00 A2998 RMK A01 T03021001  RH  014%=      5-min Rain = 0
KSB1 150353Z 31008KT 30/M00 A2998 RMK A01 T03011001  RH  014%=      5-min Rain = 0
KSB1 150354Z 30008KT 30/M00 A2998 RMK A01 T03001001  RH  014%=      5-min Rain = 0
KSB1 150355Z 32009KT 30/M00 A2998 RMK A01 T03001002  RH  014%=      5-min Rain = 0
KSB1 150356Z 31010KT 30/M00 A2998 RMK A01 T03001003  RH  014%=      5-min Rain = 0
KSB1 150357Z 31009KT 30/M00 A2998 RMK A01 T03021002  RH  014%=      5-min Rain = 0
KSB1 150358Z 31010KT 30/M00 A2998 RMK A01 T03021001  RH  014%=      5-min Rain = 0
KSB1 150359Z 31010KT 30/M00 A2998 RMK A01 T03011002  RH  014%=      5-min Rain = 0
KSB1 150400Z 31010KT 30/M00 A2998 RMK A01 T03011002  RH  014%=      5-min Rain = 0
KSB1 150401Z 31008KT 30/M00 A2998 RMK A01 T03011002  RH  014%=      5-min Rain = 0
KSB1 150402Z 31009KT 30/M00 A2998 RMK A01 T03011001  RH  014%=      5-min Rain = 0
KSB1 150403Z 31009KT 30/M00 A2998 RMK A01 T03011001  RH  014%=      5-min Rain = 0
KSB1 150404Z 30010KT 30/M00 A2998 RMK A01 T03011001  RH  014%=      5-min Rain = 0
KSB1 150405Z 31009KT 30/M00 A2998 RMK A01 T03011001  RH  014%=      5-min Rain = 0
KSB1 150406Z 31008KT 30/M00 A2998 RMK A01 T03011001  RH  014%=      5-min Rain = 0
KSB1 150407Z 31008KT 30/M00 A2999 RMK A01 T03011001  RH  014%=      5-min Rain = 0
KSB1 150408Z 31010KT 30/00 A2998 RMK A01 T030000-0  RH  014%=      5-min Rain = 0
KSB1 150409Z 30008KT 30/M00 A2999 RMK A01 T03001001  RH  014%=      5-min Rain = 0
KSB1 150410Z 31007KT 30/00 A2999 RMK A01 T030000-0  RH  014%=      5-min Rain = 0
KSB1 150411Z 30008KT 30/00 A2999 RMK A01 T02990000  RH  014%=      5-min Rain = 0
KSB1 150412Z 31008KT 30/00 A2999 RMK A01 T02980001  RH  015%=      5-min Rain = 0
KSB1 150413Z 29008KT 30/00 A2999 RMK A01 T02970000  RH  015%=      5-min Rain = 0
KSB1 150414Z 31007KT 30/00 A2999 RMK A01 T02970000  RH  015%=      5-min Rain = 0
KSB1 150415Z 31007KT 30/00 A2999 RMK A01 T02970001  RH  015%=      5-min Rain = 0
KSB1 150416Z 30007KT 30/00 A2999 RMK A01 T02980001  RH  015%=      5-min Rain = 0
KSB1 150417Z 30008KT 30/00 A2999 RMK A01 T02980002  RH  015%=      5-min Rain = 0
KSB1 150418Z 31008KT 30/00 A2999 RMK A01 T02970001  RH  015%=      5-min Rain = 0
KSB1 150419Z 31008KT 30/00 A2999 RMK A01 T02970001  RH  015%=      5-min Rain = 0
KSB1 150420Z 31007KT 30/00 A2999 RMK A01 T02970001  RH  015%=      5-min Rain = 0
KSB1 150421Z 30007KT 30/00 A2999 RMK A01 T02970002  RH  015%=      5-min Rain = 0
KSB1 150422Z 30007KT 30/00 A2999 RMK A01 T02960002  RH  015%=      5-min Rain = 0
KSB1 150423Z 30008KT 30/00 A2999 RMK A01 T02950002  RH  015%=      5-min Rain = 0
KSB1 150424Z 30009KT 30/00 A2999 RMK A01 T02950002  RH  015%=      5-min Rain = 0
KSB1 150425Z 31008KT 30/00 A2999 RMK A01 T02950002  RH  015%=      5-min Rain = 0
KSB1 150426Z 30009KT 30/00 A2999 RMK A01 T02960002  RH  015%=      5-min Rain = 0
KSB1 150427Z 30007KT 30/00 A2999 RMK A01 T02950002  RH  015%=      5-min Rain = 0
KSB1 150428Z 30008KT 30/00 A2999 RMK A01 T02960003  RH  015%=      5-min Rain = 0
KSB1 150429Z 30009KT 30/00 A2999 RMK A01 T02960002  RH  015%=      5-min Rain = 0
KSB1 150430Z 30007KT 30/00 A2999 RMK A01 T02970002  RH  015%=      5-min Rain = 0
KSB1 150431Z 30008KT 30/00 A2999 RMK A01 T02970003  RH  015%=      5-min Rain = 0
KSB1 150432Z 30007KT 30/00 A2999 RMK A01 T02970002  RH  015%=      5-min Rain = 0
KSB1 150433Z 30008KT 30/00 A2999 RMK A01 T02960003  RH  015%=      5-min Rain = 0
KSB1 150434Z 30007KT 30/00 A2999 RMK A01 T02960003  RH  015%=      5-min Rain = 0
KSB1 150435Z 30007KT 30/00 A2999 RMK A01 T02950003  RH  015%=      5-min Rain = 0
KSB1 150436Z 30006KT 30/00 A2999 RMK A01 T02950003  RH  015%=      5-min Rain = 0
KSB1 150437Z 30007KT 30/00 A2999 RMK A01 T02950003  RH  015%=      5-min Rain = 0
KSB1 150438Z 30006KT 29/00 A2999 RMK A01 T02940003  RH  015%=      5-min Rain = 0
KSB1 150439Z 30008KT 29/00 A2999 RMK A01 T02940003  RH  015%=      5-min Rain = 0
KSB1 150440Z 30008KT 29/00 A2999 RMK A01 T02940003  RH  015%=      5-min Rain = 0
KSB1 150441Z 30007KT 29/00 A2999 RMK A01 T02940003  RH  015%=      5-min Rain = 0
KSB1 150442Z 30008KT 30/00 A2999 RMK A01 T02950003  RH  015%=      5-min Rain = 0
KSB1 150443Z 31008KT 30/00 A2999 RMK A01 T02950003  RH  015%=      5-min Rain = 0
KSB1 150444Z 30007KT 30/00 A2999 RMK A01 T02950003  RH  015%=      5-min Rain = 0
KSB1 150445Z 31007KT 30/00 A2999 RMK A01 T02960004  RH  015%=      5-min Rain = 0
KSB1 150446Z 30007KT 30/00 A2999 RMK A01 T02950004  RH  015%=      5-min Rain = 0
KSB1 150447Z 31007KT 29/00 A2999 RMK A01 T02940004  RH  015%=      5-min Rain = 0
KSB1 150448Z 30007KT 29/00 A2999 RMK A01 T02940004  RH  015%=      5-min Rain = 0
KSB1 150449Z 31008KT 29/00 A2999 RMK A01 T02940004  RH  015%=      5-min Rain = 0
KSB1 150450Z 30006KT 29/00 A2999 RMK A01 T02930004  RH  015%=      5-min Rain = 0
KSB1 150451Z 29007KT 29/01 A2999 RMK A01 T02920005  RH  016%=      5-min Rain = 0
KSB1 150452Z 29006KT 29/00 A2999 RMK A01 T02920004  RH  016%=      5-min Rain = 0
KSB1 150453Z 29006KT 29/00 A2999 RMK A01 T02920004  RH  015%=      5-min Rain = 0
KSB1 150454Z 29007KT 29/01 A2999 RMK A01 T02920005  RH  016%=      5-min Rain = 0
KSB1 150455Z 29007KT 29/01 A2999 RMK A01 T02920005  RH  016%=      5-min Rain = 0
KSB1 150456Z 29006KT 29/01 A2999 RMK A01 T02920005  RH  016%=      5-min Rain = 0
KSB1 150457Z 30005KT 29/01 A2999 RMK A01 T02910005  RH  016%=      5-min Rain = 0
KSB1 150458Z 29007KT 29/01 A2999 RMK A01 T02900006  RH  016%=      5-min Rain = 0
KSB1 150459Z 29007KT 29/01 A2999 RMK A01 T02890005  RH  016%=      5-min Rain = 0

Page generated in 0.0805 seconds.